PWSweather.com
Personal Weather Stations
Station Observations
DL5ARK
SonnebergDE

SonnebergDE

Lat: 50.34904861, Lon: 11.18112087

Elevation: 1214

Station Type: Selfmade

http://www.sumbarg.de

High Low Average
Temperature 43.0°F6.1°C 32.3°F0.2°C 38.1°F3.4°C
Dew Point 47.8°F8.8°C 36.4°F2.4°C 42.1°F5.6°C
Winds 7.3 mph 11.7 kmh Calm Calm 1.0 mph WSW1.6 kmh WSW
Wind Gusts 7.4 mph11.9 kmh -- 1.0 mph1.6 kmh
Humidity 96% 89% 93%
Pressure 29.86 in1011.2 mb 29.81 in1009.5 mb -
Precipitation 0.76 in19.3 mm - -
Hour Temp Dew Point Humidity Winds Wind Gusts Pressure Precip Precip Rate Daily Precip Total
12:02 AM 32.3°F0.2°C 36.9°F2.7°C 90% Calm Calm -- 29.84 in1010.5 mb 0.00 in0.0 mm 0.00 in0.0 mm 0.00 in0.0 mm
12:05 AM 32.6°F0.3°C 36.7°F2.6°C 90% Calm Calm -- 29.84 in1010.5 mb 0.00 in0.0 mm 0.00 in0.0 mm 0.00 in0.0 mm
12:08 AM 32.7°F0.4°C 37.1°F2.8°C 90% Calm Calm -- 29.84 in1010.5 mb 0.00 in0.0 mm 0.00 in0.0 mm 0.00 in0.0 mm
12:11 AM 32.7°F0.4°C 37.0°F2.8°C 90% Calm Calm -- 29.84 in1010.5 mb 0.00 in0.0 mm 0.00 in0.0 mm 0.00 in0.0 mm
12:14 AM 32.5°F0.3°C 37.0°F2.8°C 90% Calm Calm -- 29.84 in1010.5 mb 0.00 in0.0 mm 0.00 in0.0 mm 0.00 in0.0 mm
12:17 AM 32.6°F0.3°C 36.8°F2.7°C 90% Calm Calm -- 29.84 in1010.5 mb 0.00 in0.0 mm 0.00 in0.0 mm 0.00 in0.0 mm
12:20 AM 32.5°F0.3°C 37.0°F2.8°C 90% Calm Calm -- 29.84 in1010.5 mb 0.00 in0.0 mm 0.00 in0.0 mm 0.00 in0.0 mm
12:23 AM 32.7°F0.4°C 37.0°F2.8°C 90% Calm Calm -- 29.84 in1010.5 mb 0.00 in0.0 mm 0.00 in0.0 mm 0.00 in0.0 mm
12:26 AM 32.6°F0.3°C 36.9°F2.7°C 90% Calm Calm -- 29.84 in1010.5 mb 0.00 in0.0 mm 0.00 in0.0 mm 0.00 in0.0 mm
12:29 AM 32.7°F0.4°C 37.0°F2.8°C 90% Calm Calm -- 29.84 in1010.5 mb 0.00 in0.0 mm 0.00 in0.0 mm 0.00 in0.0 mm
12:32 AM 32.5°F0.3°C 36.9°F2.7°C 90% Calm Calm -- 29.84 in1010.5 mb 0.00 in0.0 mm 0.00 in0.0 mm 0.00 in0.0 mm
12:35 AM 32.6°F0.3°C 37.1°F2.8°C 90% Calm Calm -- 29.84 in1010.5 mb 0.00 in0.0 mm 0.00 in0.0 mm 0.00 in0.0 mm
12:38 AM 32.5°F0.3°C 37.0°F2.8°C 90% Calm Calm -- 29.84 in1010.5 mb 0.00 in0.0 mm 0.00 in0.0 mm 0.00 in0.0 mm
12:41 AM 32.6°F0.3°C 37.0°F2.8°C 90% Calm Calm -- 29.84 in1010.5 mb 0.00 in0.0 mm 0.00 in0.0 mm 0.00 in0.0 mm
12:44 AM 32.6°F0.3°C 36.9°F2.7°C 90% Calm Calm -- 29.84 in1010.5 mb 0.00 in0.0 mm 0.00 in0.0 mm 0.00 in0.0 mm
12:47 AM 32.5°F0.3°C 36.6°F2.6°C 90% Calm Calm -- 29.84 in1010.5 mb 0.00 in0.0 mm 0.00 in0.0 mm 0.00 in0.0 mm
12:50 AM 32.6°F0.3°C 36.6°F2.6°C 90% Calm Calm -- 29.84 in1010.5 mb 0.00 in0.0 mm 0.00 in0.0 mm 0.00 in0.0 mm
12:53 AM 32.6°F0.3°C 37.0°F2.8°C 90% Calm Calm -- 29.84 in1010.5 mb 0.00 in0.0 mm 0.00 in0.0 mm 0.00 in0.0 mm
12:56 AM 32.7°F0.4°C 36.9°F2.7°C 90% Calm Calm -- 29.84 in1010.5 mb 0.00 in0.0 mm 0.00 in0.0 mm 0.00 in0.0 mm
12:59 AM 32.5°F0.3°C 36.8°F2.7°C 90% Calm Calm -- 29.83 in1010.2 mb 0.00 in0.0 mm 0.00 in0.0 mm 0.00 in0.0 mm
01:02 AM 32.7°F0.4°C 36.9°F2.7°C 90% Calm Calm -- 29.84 in1010.5 mb 0.00 in0.0 mm 0.00 in0.0 mm 0.00 in0.0 mm
01:05 AM 32.7°F0.4°C 36.8°F2.7°C 90% Calm Calm -- 29.84 in1010.5 mb 0.00 in0.0 mm 0.00 in0.0 mm 0.00 in0.0 mm
01:08 AM 32.5°F0.3°C 36.7°F2.6°C 89% Calm Calm -- 29.84 in1010.5 mb 0.00 in0.0 mm 0.00 in0.0 mm 0.00 in0.0 mm
01:11 AM 32.5°F0.3°C 36.9°F2.7°C 90% Calm Calm -- 29.83 in1010.2 mb 0.00 in0.0 mm 0.00 in0.0 mm 0.00 in0.0 mm
01:14 AM 32.5°F0.3°C 36.9°F2.7°C 90% Calm Calm -- 29.83 in1010.2 mb 0.00 in0.0 mm 0.00 in0.0 mm 0.00 in0.0 mm
01:17 AM 32.6°F0.3°C 36.7°F2.6°C 90% Calm Calm -- 29.83 in1010.2 mb 0.00 in0.0 mm 0.00 in0.0 mm 0.00 in0.0 mm
01:20 AM 32.5°F0.3°C 37.0°F2.8°C 90% Calm Calm -- 29.83 in1010.2 mb 0.00 in0.0 mm 0.00 in0.0 mm 0.00 in0.0 mm
01:23 AM 32.6°F0.3°C 36.8°F2.7°C 90% Calm Calm -- 29.83 in1010.2 mb 0.00 in0.0 mm 0.00 in0.0 mm 0.00 in0.0 mm
01:26 AM 32.6°F0.3°C 36.7°F2.6°C 89% Calm Calm -- 29.83 in1010.2 mb 0.00 in0.0 mm 0.00 in0.0 mm 0.00 in0.0 mm
01:29 AM 32.6°F0.3°C 37.0°F2.8°C 90% Calm Calm -- 29.83 in1010.2 mb 0.00 in0.0 mm 0.00 in0.0 mm 0.00 in0.0 mm
01:32 AM 32.6°F0.3°C 36.9°F2.7°C 90% Calm Calm -- 29.83 in1010.2 mb 0.00 in0.0 mm 0.00 in0.0 mm 0.00 in0.0 mm
01:35 AM 32.6°F0.3°C 36.6°F2.6°C 90% Calm Calm -- 29.83 in1010.2 mb 0.00 in0.0 mm 0.00 in0.0 mm 0.00 in0.0 mm
01:38 AM 32.6°F0.3°C 36.7°F2.6°C 90% Calm Calm -- 29.83 in1010.2 mb 0.00 in0.0 mm 0.00 in0.0 mm 0.00 in0.0 mm
01:41 AM 32.5°F0.3°C 36.9°F2.7°C 90% Calm Calm -- 29.83 in1010.2 mb 0.00 in0.0 mm 0.00 in0.0 mm 0.00 in0.0 mm
01:44 AM 32.5°F0.3°C 36.9°F2.7°C 90% Calm Calm -- 29.82 in1009.8 mb 0.00 in0.0 mm 0.00 in0.0 mm 0.02 in0.5 mm
01:47 AM 32.6°F0.3°C 36.7°F2.6°C 90% Calm Calm -- 29.82 in1009.8 mb 0.00 in0.0 mm 0.00 in0.0 mm 0.02 in0.5 mm
01:50 AM 32.5°F0.3°C 37.1°F2.8°C 90% Calm Calm -- 29.83 in1010.2 mb 0.00 in0.0 mm 0.00 in0.0 mm 0.02 in0.5 mm
01:53 AM 32.6°F0.3°C 36.9°F2.7°C 90% Calm Calm -- 29.82 in1009.8 mb 0.00 in0.0 mm 0.00 in0.0 mm 0.02 in0.5 mm
01:56 AM 32.6°F0.3°C 36.9°F2.7°C 90% Calm Calm -- 29.83 in1010.2 mb 0.00 in0.0 mm 0.00 in0.0 mm 0.02 in0.5 mm
01:59 AM 32.6°F0.3°C 37.2°F2.9°C 91% Calm Calm -- 29.83 in1010.2 mb 0.00 in0.0 mm 0.00 in0.0 mm 0.02 in0.5 mm
02:02 AM 32.6°F0.3°C 36.7°F2.6°C 90% Calm Calm -- 29.83 in1010.2 mb 0.00 in0.0 mm 0.00 in0.0 mm 0.02 in0.5 mm
02:05 AM 32.6°F0.3°C 36.9°F2.7°C 90% Calm Calm -- 29.82 in1009.8 mb 0.00 in0.0 mm 0.00 in0.0 mm 0.02 in0.5 mm
02:08 AM 32.6°F0.3°C 36.6°F2.6°C 90% Calm Calm -- 29.82 in1009.8 mb 0.00 in0.0 mm 0.00 in0.0 mm 0.02 in0.5 mm
02:11 AM 32.6°F0.3°C 37.0°F2.8°C 91% Calm Calm -- 29.82 in1009.8 mb 0.00 in0.0 mm 0.00 in0.0 mm 0.02 in0.5 mm
02:14 AM 32.6°F0.3°C 36.9°F2.7°C 90% Calm Calm -- 29.82 in1009.8 mb 0.00 in0.0 mm 0.00 in0.0 mm 0.02 in0.5 mm
02:17 AM 32.5°F0.3°C 37.0°F2.8°C 91% Calm Calm -- 29.82 in1009.8 mb 0.00 in0.0 mm 0.00 in0.0 mm 0.02 in0.5 mm
02:20 AM 32.6°F0.3°C 37.0°F2.8°C 91% Calm Calm -- 29.82 in1009.8 mb 0.00 in0.0 mm 0.00 in0.0 mm 0.02 in0.5 mm
02:23 AM 32.8°F0.4°C 37.1°F2.8°C 91% Calm Calm -- 29.82 in1009.8 mb 0.00 in0.0 mm 0.00 in0.0 mm 0.02 in0.5 mm
02:26 AM 32.7°F0.4°C 37.1°F2.8°C 91% Calm Calm -- 29.81 in1009.5 mb 0.00 in0.0 mm 0.00 in0.0 mm 0.02 in0.5 mm
02:29 AM 32.7°F0.4°C 37.2°F2.9°C 91% Calm Calm -- 29.82 in1009.8 mb 0.00 in0.0 mm 0.00 in0.0 mm 0.02 in0.5 mm
02:32 AM 32.6°F0.3°C 37.1°F2.8°C 91% Calm Calm -- 29.81 in1009.5 mb 0.00 in0.0 mm 0.00 in0.0 mm 0.02 in0.5 mm
02:35 AM 32.7°F0.4°C 36.8°F2.7°C 90% Calm Calm -- 29.81 in1009.5 mb 0.00 in0.0 mm 0.00 in0.0 mm 0.02 in0.5 mm
02:38 AM 32.7°F0.4°C 37.1°F2.8°C 91% Calm Calm -- 29.81 in1009.5 mb 0.00 in0.0 mm 0.00 in0.0 mm 0.02 in0.5 mm
02:41 AM 32.7°F0.4°C 36.9°F2.7°C 91% Calm Calm -- 29.81 in1009.5 mb 0.00 in0.0 mm 0.00 in0.0 mm 0.02 in0.5 mm
02:44 AM 32.8°F0.4°C 36.9°F2.7°C 91% Calm Calm -- 29.81 in1009.5 mb 0.00 in0.0 mm 0.00 in0.0 mm 0.02 in0.5 mm
02:47 AM 32.8°F0.4°C 37.0°F2.8°C 91% Calm Calm -- 29.81 in1009.5 mb 0.00 in0.0 mm 0.00 in0.0 mm 0.02 in0.5 mm
02:50 AM 32.8°F0.4°C 36.9°F2.7°C 91% Calm Calm -- 29.81 in1009.5 mb 0.00 in0.0 mm 0.00 in0.0 mm 0.04 in1.0 mm
02:53 AM 32.9°F0.5°C 37.1°F2.8°C 91% Calm Calm -- 29.81 in1009.5 mb 0.00 in0.0 mm 0.00 in0.0 mm 0.04 in1.0 mm
02:56 AM 33.0°F0.6°C 37.2°F2.9°C 91% Calm Calm -- 29.81 in1009.5 mb 0.00 in0.0 mm 0.00 in0.0 mm 0.04 in1.0 mm
02:59 AM 33.0°F0.6°C 36.8°F2.7°C 90% Calm Calm -- 29.81 in1009.5 mb 0.00 in0.0 mm 0.00 in0.0 mm 0.04 in1.0 mm
03:02 AM 32.9°F0.5°C 36.9°F2.7°C 90% Calm Calm -- 29.81 in1009.5 mb 0.00 in0.0 mm 0.00 in0.0 mm 0.04 in1.0 mm
03:05 AM 32.9°F0.5°C 37.3°F2.9°C 91% Calm Calm -- 29.81 in1009.5 mb 0.00 in0.0 mm 0.00 in0.0 mm 0.04 in1.0 mm
03:08 AM 32.8°F0.4°C 37.1°F2.8°C 91% Calm Calm -- 29.81 in1009.5 mb 0.00 in0.0 mm 0.00 in0.0 mm 0.04 in1.0 mm
03:11 AM 32.9°F0.5°C 37.1°F2.8°C 91% Calm Calm -- 29.81 in1009.5 mb 0.00 in0.0 mm 0.00 in0.0 mm 0.04 in1.0 mm
03:14 AM 32.9°F0.5°C 37.3°F2.9°C 91% Calm Calm -- 29.81 in1009.5 mb 0.00 in0.0 mm 0.00 in0.0 mm 0.04 in1.0 mm
03:17 AM 32.9°F0.5°C 37.4°F3.0°C 91% Calm Calm -- 29.81 in1009.5 mb 0.00 in0.0 mm 0.00 in0.0 mm 0.04 in1.0 mm
03:20 AM 32.9°F0.5°C 37.3°F2.9°C 91% Calm Calm -- 29.81 in1009.5 mb 0.00 in0.0 mm 0.00 in0.0 mm 0.04 in1.0 mm
03:23 AM 32.9°F0.5°C 37.3°F2.9°C 91% Calm Calm -- 29.81 in1009.5 mb 0.00 in0.0 mm 0.00 in0.0 mm 0.04 in1.0 mm
03:26 AM 32.8°F0.4°C 37.1°F2.8°C 91% Calm Calm -- 29.81 in1009.5 mb 0.00 in0.0 mm 0.00 in0.0 mm 0.04 in1.0 mm
03:29 AM 32.9°F0.5°C 37.3°F2.9°C 91% Calm Calm -- 29.81 in1009.5 mb 0.00 in0.0 mm 0.00 in0.0 mm 0.04 in1.0 mm
03:32 AM 32.9°F0.5°C 37.3°F2.9°C 91% Calm Calm -- 29.81 in1009.5 mb 0.00 in0.0 mm 0.00 in0.0 mm 0.06 in1.5 mm
03:35 AM 32.9°F0.5°C 37.2°F2.9°C 91% Calm Calm -- 29.81 in1009.5 mb 0.00 in0.0 mm 0.00 in0.0 mm 0.06 in1.5 mm
03:38 AM 32.9°F0.5°C 37.3°F2.9°C 91% Calm Calm -- 29.81 in1009.5 mb 0.00 in0.0 mm 0.00 in0.0 mm 0.06 in1.5 mm
03:41 AM 32.9°F0.5°C 37.1°F2.8°C 91% Calm Calm -- 29.81 in1009.5 mb 0.00 in0.0 mm 0.00 in0.0 mm 0.06 in1.5 mm
03:44 AM 32.9°F0.5°C 37.2°F2.9°C 91% Calm Calm -- 29.81 in1009.5 mb 0.00 in0.0 mm 0.00 in0.0 mm 0.06 in1.5 mm
03:47 AM 32.9°F0.5°C 37.0°F2.8°C 90% Calm Calm -- 29.81 in1009.5 mb 0.00 in0.0 mm 0.00 in0.0 mm 0.06 in1.5 mm
03:50 AM 33.0°F0.6°C 37.2°F2.9°C 91% Calm Calm -- 29.81 in1009.5 mb 0.00 in0.0 mm 0.00 in0.0 mm 0.06 in1.5 mm
03:53 AM 33.0°F0.6°C 37.2°F2.9°C 91% Calm Calm -- 29.81 in1009.5 mb 0.00 in0.0 mm 0.00 in0.0 mm 0.06 in1.5 mm
03:59 AM 32.9°F0.5°C 37.0°F2.8°C 91% Calm Calm -- 29.81 in1009.5 mb 0.00 in0.0 mm 0.00 in0.0 mm 0.06 in1.5 mm
04:02 AM 33.0°F0.6°C 37.3°F2.9°C 91% Calm Calm -- 29.81 in1009.5 mb 0.00 in0.0 mm 0.00 in0.0 mm 0.06 in1.5 mm
04:05 AM 32.9°F0.5°C 37.1°F2.8°C 90% Calm Calm -- 29.81 in1009.5 mb 0.00 in0.0 mm 0.00 in0.0 mm 0.06 in1.5 mm
04:08 AM 32.9°F0.5°C 37.3°F2.9°C 91% Calm Calm -- 29.81 in1009.5 mb 0.00 in0.0 mm 0.00 in0.0 mm 0.06 in1.5 mm
04:11 AM 32.9°F0.5°C 37.3°F2.9°C 91% Calm Calm -- 29.81 in1009.5 mb 0.00 in0.0 mm 0.00 in0.0 mm 0.06 in1.5 mm
04:14 AM 33.1°F0.6°C 37.3°F2.9°C 91% Calm Calm -- 29.81 in1009.5 mb 0.00 in0.0 mm 0.00 in0.0 mm 0.06 in1.5 mm
04:17 AM 33.1°F0.6°C 37.3°F2.9°C 91% Calm Calm -- 29.81 in1009.5 mb 0.00 in0.0 mm 0.00 in0.0 mm 0.06 in1.5 mm
04:20 AM 33.2°F0.7°C 36.8°F2.7°C 90% Calm Calm -- 29.81 in1009.5 mb 0.00 in0.0 mm 0.00 in0.0 mm 0.08 in2.0 mm
04:23 AM 33.2°F0.7°C 37.4°F3.0°C 91% Calm Calm -- 29.81 in1009.5 mb 0.00 in0.0 mm 0.00 in0.0 mm 0.08 in2.0 mm
04:26 AM 33.4°F0.8°C 37.4°F3.0°C 91% Calm Calm -- 29.81 in1009.5 mb 0.00 in0.0 mm 0.00 in0.0 mm 0.08 in2.0 mm
04:29 AM 33.2°F0.7°C 37.5°F3.1°C 91% Calm Calm -- 29.81 in1009.5 mb 0.00 in0.0 mm 0.00 in0.0 mm 0.08 in2.0 mm
04:32 AM 33.2°F0.7°C 37.3°F2.9°C 91% Calm Calm -- 29.81 in1009.5 mb 0.00 in0.0 mm 0.00 in0.0 mm 0.08 in2.0 mm
04:35 AM 33.4°F0.8°C 37.4°F3.0°C 91% Calm Calm -- 29.81 in1009.5 mb 0.00 in0.0 mm 0.00 in0.0 mm 0.08 in2.0 mm
04:38 AM 33.4°F0.8°C 37.4°F3.0°C 91% Calm Calm -- 29.81 in1009.5 mb 0.00 in0.0 mm 0.00 in0.0 mm 0.08 in2.0 mm
04:41 AM 33.4°F0.8°C 37.5°F3.1°C 91% Calm Calm -- 29.81 in1009.5 mb 0.00 in0.0 mm 0.00 in0.0 mm 0.08 in2.0 mm
04:44 AM 33.4°F0.8°C 37.5°F3.1°C 91% Calm Calm -- 29.81 in1009.5 mb 0.00 in0.0 mm 0.00 in0.0 mm 0.08 in2.0 mm
04:47 AM 33.4°F0.8°C 37.3°F2.9°C 91% Calm Calm -- 29.81 in1009.5 mb 0.00 in0.0 mm 0.00 in0.0 mm 0.08 in2.0 mm
04:50 AM 33.4°F0.8°C 37.5°F3.1°C 91% Calm Calm -- 29.81 in1009.5 mb 0.00 in0.0 mm 0.00 in0.0 mm 0.08 in2.0 mm
04:53 AM 33.1°F0.6°C 37.4°F3.0°C 91% Calm Calm -- 29.81 in1009.5 mb 0.00 in0.0 mm 0.00 in0.0 mm 0.10 in2.5 mm
04:56 AM 33.4°F0.8°C 37.6°F3.1°C 91% Calm Calm -- 29.81 in1009.5 mb 0.00 in0.0 mm 0.00 in0.0 mm 0.10 in2.5 mm
04:59 AM 33.5°F0.8°C 37.0°F2.8°C 90% Calm Calm -- 29.81 in1009.5 mb 0.00 in0.0 mm 0.00 in0.0 mm 0.10 in2.5 mm
05:02 AM 33.6°F0.9°C 37.5°F3.1°C 91% Calm Calm -- 29.81 in1009.5 mb 0.00 in0.0 mm 0.00 in0.0 mm 0.10 in2.5 mm
05:05 AM 33.5°F0.8°C 37.5°F3.1°C 91% Calm Calm -- 29.81 in1009.5 mb 0.00 in0.0 mm 0.00 in0.0 mm 0.10 in2.5 mm
05:08 AM 33.1°F0.6°C 37.3°F2.9°C 91% Calm Calm -- 29.81 in1009.5 mb 0.00 in0.0 mm 0.00 in0.0 mm 0.10 in2.5 mm
05:11 AM 33.2°F0.7°C 37.3°F2.9°C 91% Calm Calm -- 29.81 in1009.5 mb 0.00 in0.0 mm 0.00 in0.0 mm 0.10 in2.5 mm
05:14 AM 33.1°F0.6°C 37.1°F2.8°C 90% Calm Calm -- 29.81 in1009.5 mb 0.00 in0.0 mm 0.00 in0.0 mm 0.10 in2.5 mm
05:17 AM 33.2°F0.7°C 37.4°F3.0°C 91% Calm Calm -- 29.81 in1009.5 mb 0.00 in0.0 mm 0.00 in0.0 mm 0.10 in2.5 mm
05:20 AM 33.2°F0.7°C 37.5°F3.1°C 91% Calm Calm -- 29.81 in1009.5 mb 0.00 in0.0 mm 0.00 in0.0 mm 0.10 in2.5 mm
05:23 AM 33.2°F0.7°C 37.5°F3.1°C 91% Calm Calm -- 29.81 in1009.5 mb 0.00 in0.0 mm 0.00 in0.0 mm 0.10 in2.5 mm
05:26 AM 33.2°F0.7°C 37.6°F3.1°C 92% Calm Calm -- 29.81 in1009.5 mb 0.00 in0.0 mm 0.00 in0.0 mm 0.12 in3.0 mm
05:29 AM 33.4°F0.8°C 37.6°F3.1°C 91% Calm Calm -- 29.81 in1009.5 mb 0.00 in0.0 mm 0.00 in0.0 mm 0.12 in3.0 mm
05:32 AM 33.4°F0.8°C 37.4°F3.0°C 91% Calm Calm -- 29.81 in1009.5 mb 0.00 in0.0 mm 0.00 in0.0 mm 0.12 in3.0 mm
05:35 AM 33.2°F0.7°C 37.5°F3.1°C 91% Calm Calm -- 29.81 in1009.5 mb 0.00 in0.0 mm 0.00 in0.0 mm 0.12 in3.0 mm
05:38 AM 33.4°F0.8°C 37.6°F3.1°C 91% Calm Calm -- 29.81 in1009.5 mb 0.00 in0.0 mm 0.00 in0.0 mm 0.12 in3.0 mm
05:41 AM 33.2°F0.7°C 37.4°F3.0°C 91% Calm Calm -- 29.81 in1009.5 mb 0.00 in0.0 mm 0.00 in0.0 mm 0.12 in3.0 mm
05:44 AM 33.4°F0.8°C 37.6°F3.1°C 91% Calm Calm -- 29.81 in1009.5 mb 0.00 in0.0 mm 0.00 in0.0 mm 0.12 in3.0 mm
05:47 AM 33.4°F0.8°C 37.4°F3.0°C 91% Calm Calm -- 29.82 in1009.8 mb 0.00 in0.0 mm 0.00 in0.0 mm 0.12 in3.0 mm
05:50 AM 33.4°F0.8°C 37.7°F3.2°C 91% Calm Calm -- 29.81 in1009.5 mb 0.00 in0.0 mm 0.00 in0.0 mm 0.12 in3.0 mm
05:56 AM 33.4°F0.8°C 37.5°F3.1°C 91% Calm Calm -- 29.81 in1009.5 mb 0.00 in0.0 mm 0.00 in0.0 mm 0.12 in3.0 mm
05:59 AM 33.5°F0.8°C 37.5°F3.1°C 91% Calm Calm -- 29.82 in1009.8 mb 0.00 in0.0 mm 0.00 in0.0 mm 0.14 in3.6 mm
06:02 AM 33.4°F0.8°C 37.4°F3.0°C 90% Calm Calm -- 29.81 in1009.5 mb 0.00 in0.0 mm 0.00 in0.0 mm 0.14 in3.6 mm
06:05 AM 33.4°F0.8°C 37.5°F3.1°C 91% Calm Calm -- 29.82 in1009.8 mb 0.00 in0.0 mm 0.00 in0.0 mm 0.14 in3.6 mm
06:08 AM 33.4°F0.8°C 37.6°F3.1°C 91% Calm Calm -- 29.82 in1009.8 mb 0.00 in0.0 mm 0.00 in0.0 mm 0.14 in3.6 mm
06:11 AM 33.5°F0.8°C 37.5°F3.1°C 91% Calm Calm -- 29.82 in1009.8 mb 0.00 in0.0 mm 0.00 in0.0 mm 0.14 in3.6 mm
06:14 AM 33.5°F0.8°C 37.8°F3.2°C 91% Calm Calm -- 29.82 in1009.8 mb 0.00 in0.0 mm 0.00 in0.0 mm 0.14 in3.6 mm
06:17 AM 33.5°F0.8°C 37.6°F3.1°C 92% Calm Calm -- 29.81 in1009.5 mb 0.00 in0.0 mm 0.00 in0.0 mm 0.14 in3.6 mm
06:20 AM 33.5°F0.8°C 37.7°F3.2°C 92% Calm Calm -- 29.82 in1009.8 mb 0.00 in0.0 mm 0.00 in0.0 mm 0.14 in3.6 mm
06:23 AM 33.5°F0.8°C 37.7°F3.2°C 92% Calm Calm -- 29.82 in1009.8 mb 0.00 in0.0 mm 0.00 in0.0 mm 0.14 in3.6 mm
06:26 AM 33.6°F0.9°C 37.6°F3.1°C 92% Calm Calm -- 29.82 in1009.8 mb 0.00 in0.0 mm 0.00 in0.0 mm 0.14 in3.6 mm
06:29 AM 33.6°F0.9°C 37.6°F3.1°C 92% Calm Calm -- 29.82 in1009.8 mb 0.00 in0.0 mm 0.00 in0.0 mm 0.14 in3.6 mm
06:32 AM 33.6°F0.9°C 37.8°F3.2°C 92% Calm Calm -- 29.82 in1009.8 mb 0.00 in0.0 mm 0.00 in0.0 mm 0.14 in3.6 mm
06:35 AM 33.7°F0.9°C 37.8°F3.2°C 92% Calm Calm -- 29.82 in1009.8 mb 0.00 in0.0 mm 0.00 in0.0 mm 0.16 in4.1 mm
06:38 AM 33.7°F0.9°C 37.7°F3.2°C 92% 0.8 mph 1.3 kmh 0.8 mph1.3 kmh 29.82 in1009.8 mb 0.00 in0.0 mm 0.00 in0.0 mm 0.16 in4.1 mm
06:41 AM 33.6°F0.9°C 37.7°F3.2°C 92% Calm Calm -- 29.82 in1009.8 mb 0.00 in0.0 mm 0.00 in0.0 mm 0.16 in4.1 mm
06:44 AM 33.7°F0.9°C 37.7°F3.2°C 92% Calm Calm -- 29.83 in1010.2 mb 0.00 in0.0 mm 0.00 in0.0 mm 0.16 in4.1 mm
06:47 AM 33.7°F0.9°C 37.6°F3.1°C 92% Calm Calm -- 29.83 in1010.2 mb 0.00 in0.0 mm 0.00 in0.0 mm 0.16 in4.1 mm
06:50 AM 33.7°F0.9°C 38.0°F3.3°C 92% Calm Calm -- 29.83 in1010.2 mb 0.00 in0.0 mm 0.00 in0.0 mm 0.16 in4.1 mm
06:53 AM 33.8°F1.0°C 37.9°F3.3°C 92% Calm Calm -- 29.82 in1009.8 mb 0.00 in0.0 mm 0.00 in0.0 mm 0.18 in4.6 mm
06:56 AM 33.7°F0.9°C 37.7°F3.2°C 92% Calm Calm -- 29.82 in1009.8 mb 0.00 in0.0 mm 0.00 in0.0 mm 0.18 in4.6 mm
06:59 AM 33.8°F1.0°C 37.9°F3.3°C 92% Calm Calm -- 29.82 in1009.8 mb 0.00 in0.0 mm 0.00 in0.0 mm 0.18 in4.6 mm
07:02 AM 33.9°F1.1°C 37.9°F3.3°C 92% Calm Calm -- 29.83 in1010.2 mb 0.00 in0.0 mm 0.00 in0.0 mm 0.18 in4.6 mm
07:05 AM 34.0°F1.1°C 37.7°F3.2°C 92% Calm Calm -- 29.83 in1010.2 mb 0.00 in0.0 mm 0.00 in0.0 mm 0.18 in4.6 mm
07:08 AM 34.0°F1.1°C 38.1°F3.4°C 92% Calm Calm -- 29.83 in1010.2 mb 0.00 in0.0 mm 0.00 in0.0 mm 0.20 in5.1 mm
07:11 AM 33.9°F1.1°C 37.8°F3.2°C 92% Calm Calm -- 29.83 in1010.2 mb 0.00 in0.0 mm 0.00 in0.0 mm 0.20 in5.1 mm
07:14 AM 34.0°F1.1°C 37.9°F3.3°C 92% Calm Calm -- 29.83 in1010.2 mb 0.00 in0.0 mm 0.00 in0.0 mm 0.20 in5.1 mm
07:17 AM 33.9°F1.1°C 38.1°F3.4°C 92% Calm Calm -- 29.83 in1010.2 mb 0.00 in0.0 mm 0.00 in0.0 mm 0.20 in5.1 mm
07:20 AM 33.9°F1.1°C 38.1°F3.4°C 92% Calm Calm -- 29.83 in1010.2 mb 0.00 in0.0 mm 0.00 in0.0 mm 0.20 in5.1 mm
07:23 AM 33.9°F1.1°C 37.9°F3.3°C 92% Calm Calm -- 29.83 in1010.2 mb 0.00 in0.0 mm 0.00 in0.0 mm 0.22 in5.6 mm
07:26 AM 33.9°F1.1°C 38.1°F3.4°C 92% Calm Calm -- 29.83 in1010.2 mb 0.00 in0.0 mm 0.00 in0.0 mm 0.22 in5.6 mm
07:29 AM 33.9°F1.1°C 37.9°F3.3°C 92% Calm Calm -- 29.83 in1010.2 mb 0.00 in0.0 mm 0.00 in0.0 mm 0.22 in5.6 mm
07:32 AM 33.9°F1.1°C 37.9°F3.3°C 92% Calm Calm -- 29.83 in1010.2 mb 0.00 in0.0 mm 0.00 in0.0 mm 0.22 in5.6 mm
07:35 AM 34.0°F1.1°C 38.0°F3.3°C 92% Calm Calm -- 29.83 in1010.2 mb 0.00 in0.0 mm 0.00 in0.0 mm 0.22 in5.6 mm
07:41 AM 34.0°F1.1°C 38.0°F3.3°C 92% Calm Calm -- 29.83 in1010.2 mb 0.00 in0.0 mm 0.00 in0.0 mm 0.24 in6.1 mm
07:44 AM 34.1°F1.2°C 38.3°F3.5°C 92% Calm Calm -- 29.83 in1010.2 mb 0.00 in0.0 mm 0.00 in0.0 mm 0.24 in6.1 mm
07:47 AM 34.1°F1.2°C 37.6°F3.1°C 90% Calm Calm -- 29.83 in1010.2 mb 0.00 in0.0 mm 0.00 in0.0 mm 0.24 in6.1 mm
07:50 AM 34.1°F1.2°C 38.2°F3.4°C 92% Calm Calm -- 29.83 in1010.2 mb 0.00 in0.0 mm 0.00 in0.0 mm 0.24 in6.1 mm
07:53 AM 34.1°F1.2°C 38.0°F3.3°C 92% Calm Calm -- 29.83 in1010.2 mb 0.00 in0.0 mm 0.00 in0.0 mm 0.24 in6.1 mm
07:56 AM 34.1°F1.2°C 38.1°F3.4°C 92% Calm Calm -- 29.83 in1010.2 mb 0.00 in0.0 mm 0.00 in0.0 mm 0.24 in6.1 mm
08:02 AM 34.4°F1.3°C 38.1°F3.4°C 92% Calm Calm -- 29.84 in1010.5 mb 0.00 in0.0 mm 0.00 in0.0 mm 0.24 in6.1 mm
08:05 AM 34.4°F1.3°C 38.0°F3.3°C 92% Calm Calm -- 29.83 in1010.2 mb 0.00 in0.0 mm 0.00 in0.0 mm 0.24 in6.1 mm
08:08 AM 34.4°F1.3°C 38.3°F3.5°C 92% Calm Calm -- 29.84 in1010.5 mb 0.00 in0.0 mm 0.00 in0.0 mm 0.26 in6.6 mm
08:11 AM 34.4°F1.3°C 38.1°F3.4°C 92% Calm Calm -- 29.84 in1010.5 mb 0.00 in0.0 mm 0.00 in0.0 mm 0.26 in6.6 mm
08:14 AM 34.5°F1.4°C 38.0°F3.3°C 91% Calm Calm -- 29.84 in1010.5 mb 0.00 in0.0 mm 0.00 in0.0 mm 0.26 in6.6 mm
08:17 AM 34.5°F1.4°C 38.3°F3.5°C 92% Calm Calm -- 29.84 in1010.5 mb 0.00 in0.0 mm 0.00 in0.0 mm 0.26 in6.6 mm
08:20 AM 34.6°F1.4°C 38.3°F3.5°C 92% Calm Calm -- 29.84 in1010.5 mb 0.00 in0.0 mm 0.00 in0.0 mm 0.26 in6.6 mm
08:23 AM 34.5°F1.4°C 38.4°F3.6°C 92% Calm Calm -- 29.84 in1010.5 mb 0.00 in0.0 mm 0.00 in0.0 mm 0.28 in7.1 mm
08:26 AM 34.6°F1.4°C 38.5°F3.6°C 92% Calm Calm -- 29.84 in1010.5 mb 0.00 in0.0 mm 0.00 in0.0 mm 0.28 in7.1 mm
08:29 AM 34.6°F1.4°C 38.3°F3.5°C 92% Calm Calm -- 29.84 in1010.5 mb 0.00 in0.0 mm 0.00 in0.0 mm 0.28 in7.1 mm
08:32 AM 34.6°F1.4°C 38.5°F3.6°C 92% Calm Calm -- 29.84 in1010.5 mb 0.00 in0.0 mm 0.00 in0.0 mm 0.28 in7.1 mm
08:35 AM 34.6°F1.4°C 38.3°F3.5°C 92% Calm Calm -- 29.84 in1010.5 mb 0.00 in0.0 mm 0.00 in0.0 mm 0.30 in7.6 mm
08:38 AM 34.6°F1.4°C 38.4°F3.6°C 92% Calm Calm -- 29.84 in1010.5 mb 0.00 in0.0 mm 0.00 in0.0 mm 0.30 in7.6 mm
08:41 AM 34.7°F1.5°C 38.5°F3.6°C 93% Calm Calm -- 29.84 in1010.5 mb 0.00 in0.0 mm 0.00 in0.0 mm 0.30 in7.6 mm
08:44 AM 34.7°F1.5°C 38.5°F3.6°C 93% Calm Calm -- 29.84 in1010.5 mb 0.00 in0.0 mm 0.00 in0.0 mm 0.30 in7.6 mm
08:47 AM 34.5°F1.4°C 38.5°F3.6°C 92% Calm Calm -- 29.84 in1010.5 mb 0.00 in0.0 mm 0.00 in0.0 mm 0.30 in7.6 mm
08:50 AM 34.5°F1.4°C 38.4°F3.6°C 92% Calm Calm -- 29.84 in1010.5 mb 0.00 in0.0 mm 0.00 in0.0 mm 0.30 in7.6 mm
08:53 AM 34.7°F1.5°C 38.4°F3.6°C 92% Calm Calm -- 29.84 in1010.5 mb 0.00 in0.0 mm 0.00 in0.0 mm 0.32 in8.1 mm
08:56 AM 34.8°F1.6°C 38.4°F3.6°C 92% Calm Calm -- 29.84 in1010.5 mb 0.00 in0.0 mm 0.00 in0.0 mm 0.32 in8.1 mm
08:59 AM 34.7°F1.5°C 38.6°F3.7°C 92% Calm Calm -- 29.84 in1010.5 mb 0.00 in0.0 mm 0.00 in0.0 mm 0.32 in8.1 mm
09:02 AM 34.8°F1.6°C 38.4°F3.6°C 92% Calm Calm -- 29.84 in1010.5 mb 0.00 in0.0 mm 0.00 in0.0 mm 0.32 in8.1 mm
09:05 AM 34.8°F1.6°C 38.3°F3.5°C 91% Calm Calm -- 29.84 in1010.5 mb 0.00 in0.0 mm 0.00 in0.0 mm 0.32 in8.1 mm
09:08 AM 34.8°F1.6°C 38.6°F3.7°C 92% Calm Calm -- 29.84 in1010.5 mb 0.00 in0.0 mm 0.00 in0.0 mm 0.34 in8.6 mm
09:11 AM 34.9°F1.6°C 38.6°F3.7°C 93% Calm Calm -- 29.84 in1010.5 mb 0.00 in0.0 mm 0.00 in0.0 mm 0.34 in8.6 mm
09:14 AM 34.9°F1.6°C 38.6°F3.7°C 93% Calm Calm -- 29.84 in1010.5 mb 0.00 in0.0 mm 0.00 in0.0 mm 0.34 in8.6 mm
09:17 AM 34.8°F1.6°C 38.5°F3.6°C 92% Calm Calm -- 29.84 in1010.5 mb 0.00 in0.0 mm 0.00 in0.0 mm 0.34 in8.6 mm
09:20 AM 34.8°F1.6°C 38.8°F3.8°C 92% Calm Calm -- 29.84 in1010.5 mb 0.00 in0.0 mm 0.00 in0.0 mm 0.34 in8.6 mm
09:23 AM 34.9°F1.6°C 38.7°F3.7°C 92% Calm Calm -- 29.84 in1010.5 mb 0.00 in0.0 mm 0.00 in0.0 mm 0.34 in8.6 mm
09:26 AM 34.9°F1.6°C 38.6°F3.7°C 92% Calm Calm -- 29.84 in1010.5 mb 0.00 in0.0 mm 0.00 in0.0 mm 0.34 in8.6 mm
09:29 AM 35.0°F1.7°C 38.7°F3.7°C 92% Calm Calm -- 29.84 in1010.5 mb 0.00 in0.0 mm 0.00 in0.0 mm 0.34 in8.6 mm
09:32 AM 34.9°F1.6°C 39.0°F3.9°C 93% Calm Calm -- 29.85 in1010.8 mb 0.00 in0.0 mm 0.00 in0.0 mm 0.36 in9.1 mm
09:35 AM 34.8°F1.6°C 38.8°F3.8°C 93% Calm Calm -- 29.85 in1010.8 mb 0.00 in0.0 mm 0.00 in0.0 mm 0.36 in9.1 mm
09:38 AM 34.8°F1.6°C 38.7°F3.7°C 92% Calm Calm -- 29.85 in1010.8 mb 0.00 in0.0 mm 0.00 in0.0 mm 0.36 in9.1 mm
09:41 AM 35.0°F1.7°C 38.7°F3.7°C 93% Calm Calm -- 29.85 in1010.8 mb 0.00 in0.0 mm 0.00 in0.0 mm 0.36 in9.1 mm
09:44 AM 35.2°F1.8°C 38.5°F3.6°C 92% Calm Calm -- 29.85 in1010.8 mb 0.00 in0.0 mm 0.00 in0.0 mm 0.36 in9.1 mm
09:47 AM 35.3°F1.8°C 38.7°F3.7°C 93% Calm Calm -- 29.84 in1010.5 mb 0.00 in0.0 mm 0.00 in0.0 mm 0.36 in9.1 mm
09:50 AM 35.3°F1.8°C 38.7°F3.7°C 93% Calm Calm -- 29.84 in1010.5 mb 0.00 in0.0 mm 0.00 in0.0 mm 0.36 in9.1 mm
09:53 AM 35.4°F1.9°C 38.9°F3.8°C 93% Calm Calm -- 29.84 in1010.5 mb 0.00 in0.0 mm 0.00 in0.0 mm 0.38 in9.7 mm
09:56 AM 35.5°F1.9°C 38.9°F3.8°C 93% Calm Calm -- 29.85 in1010.8 mb 0.00 in0.0 mm 0.00 in0.0 mm 0.38 in9.7 mm
09:59 AM 35.4°F1.9°C 38.9°F3.8°C 93% Calm Calm -- 29.85 in1010.8 mb 0.00 in0.0 mm 0.00 in0.0 mm 0.38 in9.7 mm
10:02 AM 35.4°F1.9°C 38.8°F3.8°C 93% Calm Calm -- 29.85 in1010.8 mb 0.00 in0.0 mm 0.00 in0.0 mm 0.38 in9.7 mm
10:05 AM 35.4°F1.9°C 38.9°F3.8°C 93% Calm Calm -- 29.85 in1010.8 mb 0.00 in0.0 mm 0.00 in0.0 mm 0.38 in9.7 mm
10:08 AM 35.5°F1.9°C 39.0°F3.9°C 93% Calm Calm -- 29.86 in1011.2 mb 0.00 in0.0 mm 0.00 in0.0 mm 0.38 in9.7 mm
10:11 AM 35.6°F2.0°C 39.2°F4.0°C 93% Calm Calm -- 29.85 in1010.8 mb 0.00 in0.0 mm 0.00 in0.0 mm 0.38 in9.7 mm
10:14 AM 35.6°F2.0°C 39.0°F3.9°C 93% Calm Calm -- 29.85 in1010.8 mb 0.00 in0.0 mm 0.00 in0.0 mm 0.38 in9.7 mm
10:17 AM 35.7°F2.1°C 39.1°F3.9°C 93% Calm Calm -- 29.86 in1011.2 mb 0.00 in0.0 mm 0.00 in0.0 mm 0.40 in10.2 mm
10:20 AM 35.8°F2.1°C 38.9°F3.8°C 93% Calm Calm -- 29.86 in1011.2 mb 0.00 in0.0 mm 0.00 in0.0 mm 0.40 in10.2 mm
10:23 AM 35.9°F2.2°C 39.0°F3.9°C 93% Calm Calm -- 29.85 in1010.8 mb 0.00 in0.0 mm 0.00 in0.0 mm 0.40 in10.2 mm
10:26 AM 36.2°F2.3°C 39.3°F4.1°C 93% Calm Calm -- 29.86 in1011.2 mb 0.00 in0.0 mm 0.00 in0.0 mm 0.40 in10.2 mm
10:29 AM 36.2°F2.3°C 39.0°F3.9°C 92% Calm Calm -- 29.86 in1011.2 mb 0.00 in0.0 mm 0.00 in0.0 mm 0.42 in10.7 mm
10:32 AM 36.2°F2.3°C 39.4°F4.1°C 93% Calm Calm -- 29.85 in1010.8 mb 0.00 in0.0 mm 0.00 in0.0 mm 0.42 in10.7 mm
10:35 AM 36.3°F2.4°C 39.4°F4.1°C 93% Calm Calm -- 29.85 in1010.8 mb 0.00 in0.0 mm 0.00 in0.0 mm 0.42 in10.7 mm
10:38 AM 36.3°F2.4°C 39.5°F4.2°C 93% Calm Calm -- 29.85 in1010.8 mb 0.00 in0.0 mm 0.00 in0.0 mm 0.42 in10.7 mm
10:41 AM 36.3°F2.4°C 39.4°F4.1°C 93% Calm Calm -- 29.85 in1010.8 mb 0.00 in0.0 mm 0.00 in0.0 mm 0.44 in11.2 mm
10:44 AM 36.4°F2.4°C 39.8°F4.3°C 94% Calm Calm -- 29.85 in1010.8 mb 0.00 in0.0 mm 0.00 in0.0 mm 0.44 in11.2 mm
10:47 AM 36.3°F2.4°C 39.8°F4.3°C 93% Calm Calm -- 29.86 in1011.2 mb 0.00 in0.0 mm 0.00 in0.0 mm 0.44 in11.2 mm
10:50 AM 36.5°F2.5°C 39.8°F4.3°C 93% Calm Calm -- 29.86 in1011.2 mb 0.00 in0.0 mm 0.00 in0.0 mm 0.44 in11.2 mm
10:53 AM 36.5°F2.5°C 39.9°F4.4°C 94% Calm Calm -- 29.86 in1011.2 mb 0.00 in0.0 mm 0.00 in0.0 mm 0.44 in11.2 mm
10:56 AM 36.6°F2.6°C 39.8°F4.3°C 93% Calm Calm -- 29.86 in1011.2 mb 0.00 in0.0 mm 0.00 in0.0 mm 0.46 in11.7 mm
10:59 AM 37.1°F2.8°C 39.3°F4.1°C 92% Calm Calm -- 29.86 in1011.2 mb 0.00 in0.0 mm 0.00 in0.0 mm 0.46 in11.7 mm
11:02 AM 37.0°F2.8°C 40.2°F4.6°C 93% Calm Calm -- 29.86 in1011.2 mb 0.00 in0.0 mm 0.00 in0.0 mm 0.46 in11.7 mm
11:05 AM 36.8°F2.7°C 39.9°F4.4°C 93% Calm Calm -- 29.86 in1011.2 mb 0.00 in0.0 mm 0.00 in0.0 mm 0.46 in11.7 mm
11:08 AM 37.0°F2.8°C 40.2°F4.6°C 94% Calm Calm -- 29.85 in1010.8 mb 0.00 in0.0 mm 0.00 in0.0 mm 0.46 in11.7 mm
11:11 AM 37.0°F2.8°C 40.3°F4.6°C 94% Calm Calm -- 29.86 in1011.2 mb 0.00 in0.0 mm 0.00 in0.0 mm 0.48 in12.2 mm
11:14 AM 37.0°F2.8°C 40.1°F4.5°C 94% Calm Calm -- 29.86 in1011.2 mb 0.00 in0.0 mm 0.00 in0.0 mm 0.48 in12.2 mm
11:17 AM 37.0°F2.8°C 40.3°F4.6°C 93% Calm Calm -- 29.85 in1010.8 mb 0.00 in0.0 mm 0.00 in0.0 mm 0.48 in12.2 mm
11:20 AM 37.0°F2.8°C 40.3°F4.6°C 93% Calm Calm -- 29.85 in1010.8 mb 0.00 in0.0 mm 0.00 in0.0 mm 0.48 in12.2 mm
11:23 AM 37.0°F2.8°C 40.6°F4.8°C 94% Calm Calm -- 29.86 in1011.2 mb 0.00 in0.0 mm 0.00 in0.0 mm 0.48 in12.2 mm
11:26 AM 37.2°F2.9°C 40.3°F4.6°C 94% Calm Calm -- 29.86 in1011.2 mb 0.00 in0.0 mm 0.00 in0.0 mm 0.48 in12.2 mm
11:29 AM 37.3°F2.9°C 40.4°F4.7°C 94% Calm Calm -- 29.86 in1011.2 mb 0.00 in0.0 mm 0.00 in0.0 mm 0.50 in12.7 mm
11:32 AM 37.2°F2.9°C 40.4°F4.7°C 94% Calm Calm -- 29.85 in1010.8 mb 0.00 in0.0 mm 0.00 in0.0 mm 0.50 in12.7 mm
11:35 AM 37.3°F2.9°C 40.5°F4.7°C 94% Calm Calm -- 29.85 in1010.8 mb 0.00 in0.0 mm 0.00 in0.0 mm 0.50 in12.7 mm
11:38 AM 37.3°F2.9°C 40.4°F4.7°C 94% Calm Calm -- 29.84 in1010.5 mb 0.00 in0.0 mm 0.00 in0.0 mm 0.50 in12.7 mm
11:41 AM 37.3°F2.9°C 40.8°F4.9°C 94% Calm Calm -- 29.84 in1010.5 mb 0.00 in0.0 mm 0.00 in0.0 mm 0.50 in12.7 mm
11:44 AM 37.4°F3.0°C 40.6°F4.8°C 94% Calm Calm -- 29.84 in1010.5 mb 0.00 in0.0 mm 0.00 in0.0 mm 0.52 in13.2 mm
11:47 AM 37.5°F3.1°C 40.7°F4.8°C 94% Calm Calm -- 29.84 in1010.5 mb 0.00 in0.0 mm 0.00 in0.0 mm 0.52 in13.2 mm
11:50 AM 37.7°F3.2°C 40.7°F4.8°C 94% Calm Calm -- 29.84 in1010.5 mb 0.00 in0.0 mm 0.00 in0.0 mm 0.52 in13.2 mm
11:53 AM 37.7°F3.2°C 40.8°F4.9°C 94% Calm Calm -- 29.84 in1010.5 mb 0.00 in0.0 mm 0.00 in0.0 mm 0.52 in13.2 mm
11:56 AM 37.9°F3.3°C 40.8°F4.9°C 94% Calm Calm -- 29.84 in1010.5 mb 0.00 in0.0 mm 0.00 in0.0 mm 0.52 in13.2 mm
11:59 AM 37.7°F3.2°C 40.8°F4.9°C 94% Calm Calm -- 29.84 in1010.5 mb 0.00 in0.0 mm 0.00 in0.0 mm 0.52 in13.2 mm
12:02 PM 38.1°F3.4°C 41.1°F5.1°C 94% Calm Calm -- 29.84 in1010.5 mb 0.00 in0.0 mm 0.00 in0.0 mm 0.54 in13.7 mm
12:05 PM 38.3°F3.5°C 40.9°F4.9°C 94% Calm Calm -- 29.84 in1010.5 mb 0.00 in0.0 mm 0.00 in0.0 mm 0.54 in13.7 mm
12:08 PM 38.4°F3.6°C 41.1°F5.1°C 94% Calm Calm -- 29.84 in1010.5 mb 0.00 in0.0 mm 0.00 in0.0 mm 0.54 in13.7 mm
12:11 PM 38.2°F3.4°C 41.4°F5.2°C 94% Calm Calm -- 29.84 in1010.5 mb 0.00 in0.0 mm 0.00 in0.0 mm 0.54 in13.7 mm
12:14 PM 38.1°F3.4°C 41.1°F5.1°C 94% Calm Calm -- 29.84 in1010.5 mb 0.00 in0.0 mm 0.00 in0.0 mm 0.54 in13.7 mm
12:17 PM 38.2°F3.4°C 41.3°F5.2°C 94% Calm Calm -- 29.84 in1010.5 mb 0.00 in0.0 mm 0.00 in0.0 mm 0.54 in13.7 mm
12:20 PM 38.2°F3.4°C 41.5°F5.3°C 94% Calm Calm -- 29.84 in1010.5 mb 0.00 in0.0 mm 0.00 in0.0 mm 0.54 in13.7 mm
12:23 PM 38.3°F3.5°C 41.4°F5.2°C 94% Calm Calm -- 29.84 in1010.5 mb 0.00 in0.0 mm 0.00 in0.0 mm 0.54 in13.7 mm
12:26 PM 38.6°F3.7°C 41.4°F5.2°C 94% Calm Calm -- 29.84 in1010.5 mb 0.00 in0.0 mm 0.00 in0.0 mm 0.54 in13.7 mm
12:29 PM 39.0°F3.9°C 41.6°F5.3°C 95% Calm Calm -- 29.84 in1010.5 mb 0.00 in0.0 mm 0.00 in0.0 mm 0.56 in14.2 mm
12:32 PM 39.3°F4.1°C 41.8°F5.4°C 95% Calm Calm -- 29.84 in1010.5 mb 0.00 in0.0 mm 0.00 in0.0 mm 0.56 in14.2 mm
12:35 PM 39.4°F4.1°C 42.0°F5.6°C 95% Calm Calm -- 29.84 in1010.5 mb 0.00 in0.0 mm 0.00 in0.0 mm 0.56 in14.2 mm
12:38 PM 39.5°F4.2°C 41.9°F5.5°C 95% Calm Calm -- 29.84 in1010.5 mb 0.00 in0.0 mm 0.00 in0.0 mm 0.56 in14.2 mm
12:41 PM 39.5°F4.2°C 42.2°F5.7°C 95% Calm Calm -- 29.84 in1010.5 mb 0.00 in0.0 mm 0.00 in0.0 mm 0.56 in14.2 mm
12:44 PM 39.7°F4.3°C 42.3°F5.7°C 95% Calm Calm -- 29.84 in1010.5 mb 0.00 in0.0 mm 0.00 in0.0 mm 0.56 in14.2 mm
12:47 PM 39.4°F4.1°C 42.5°F5.8°C 95% Calm Calm -- 29.84 in1010.5 mb 0.00 in0.0 mm 0.00 in0.0 mm 0.58 in14.7 mm
12:50 PM 40.0°F4.4°C 42.7°F5.9°C 95% Calm Calm -- 29.84 in1010.5 mb 0.00 in0.0 mm 0.00 in0.0 mm 0.58 in14.7 mm
12:53 PM 40.1°F4.5°C 42.7°F5.9°C 95% Calm Calm -- 29.84 in1010.5 mb 0.00 in0.0 mm 0.00 in0.0 mm 0.58 in14.7 mm
12:56 PM 40.2°F4.6°C 42.4°F5.8°C 94% Calm Calm -- 29.84 in1010.5 mb 0.00 in0.0 mm 0.00 in0.0 mm 0.58 in14.7 mm
12:59 PM 39.8°F4.3°C 42.6°F5.9°C 95% Calm Calm -- 29.84 in1010.5 mb 0.00 in0.0 mm 0.00 in0.0 mm 0.58 in14.7 mm
01:02 PM 39.8°F4.3°C 42.5°F5.8°C 95% Calm Calm -- 29.84 in1010.5 mb 0.00 in0.0 mm 0.00 in0.0 mm 0.58 in14.7 mm
01:05 PM 40.0°F4.4°C 42.8°F6.0°C 95% Calm Calm -- 29.84 in1010.5 mb 0.00 in0.0 mm 0.00 in0.0 mm 0.58 in14.7 mm
01:08 PM 39.9°F4.4°C 42.9°F6.1°C 95% Calm Calm -- 29.84 in1010.5 mb 0.00 in0.0 mm 0.00 in0.0 mm 0.60 in15.2 mm
01:11 PM 40.1°F4.5°C 43.1°F6.2°C 95% Calm Calm -- 29.84 in1010.5 mb 0.00 in0.0 mm 0.00 in0.0 mm 0.60 in15.2 mm
01:14 PM 40.3°F4.6°C 43.2°F6.2°C 95% 1.6 mph WNW2.6 kmh WNW 1.6 mph2.6 kmh 29.83 in1010.2 mb 0.00 in0.0 mm 0.00 in0.0 mm 0.60 in15.2 mm
01:17 PM 40.4°F4.7°C 43.0°F6.1°C 94% Calm Calm -- 29.83 in1010.2 mb 0.00 in0.0 mm 0.00 in0.0 mm 0.60 in15.2 mm
01:20 PM 40.4°F4.7°C 43.4°F6.3°C 95% Calm Calm -- 29.84 in1010.5 mb 0.00 in0.0 mm 0.00 in0.0 mm 0.60 in15.2 mm
01:23 PM 40.8°F4.9°C 43.4°F6.3°C 95% 1.2 mph NW1.9 kmh NW 1.2 mph1.9 kmh 29.83 in1010.2 mb 0.00 in0.0 mm 0.00 in0.0 mm 0.60 in15.2 mm
01:26 PM 40.7°F4.8°C 42.9°F6.1°C 94% Calm Calm -- 29.83 in1010.2 mb 0.00 in0.0 mm 0.00 in0.0 mm 0.62 in15.7 mm
01:29 PM 40.6°F4.8°C 43.5°F6.4°C 95% Calm Calm -- 29.83 in1010.2 mb 0.00 in0.0 mm 0.00 in0.0 mm 0.62 in15.7 mm
01:32 PM 40.7°F4.8°C 43.6°F6.4°C 95% 0.4 mph W0.6 kmh W 0.4 mph0.6 kmh 29.84 in1010.5 mb 0.00 in0.0 mm 0.00 in0.0 mm 0.62 in15.7 mm
01:35 PM 40.7°F4.8°C 43.6°F6.4°C 95% Calm Calm -- 29.84 in1010.5 mb 0.00 in0.0 mm 0.00 in0.0 mm 0.62 in15.7 mm
01:38 PM 40.9°F4.9°C 43.9°F6.6°C 95% Calm Calm -- 29.84 in1010.5 mb 0.00 in0.0 mm 0.00 in0.0 mm 0.62 in15.7 mm
01:41 PM 41.2°F5.1°C 43.7°F6.5°C 95% Calm Calm -- 29.84 in1010.5 mb 0.00 in0.0 mm 0.00 in0.0 mm 0.62 in15.7 mm
01:44 PM 41.2°F5.1°C 44.0°F6.7°C 96% Calm Calm -- 29.83 in1010.2 mb 0.00 in0.0 mm 0.00 in0.0 mm 0.64 in16.3 mm
01:47 PM 41.3°F5.2°C 44.2°F6.8°C 96% Calm Calm -- 29.83 in1010.2 mb 0.00 in0.0 mm 0.00 in0.0 mm 0.64 in16.3 mm
01:50 PM 41.5°F5.3°C 44.2°F6.8°C 95% Calm Calm -- 29.83 in1010.2 mb 0.00 in0.0 mm 0.00 in0.0 mm 0.64 in16.3 mm
01:53 PM 41.3°F5.2°C 44.1°F6.7°C 95% Calm Calm -- 29.83 in1010.2 mb 0.00 in0.0 mm 0.00 in0.0 mm 0.64 in16.3 mm
01:56 PM 41.2°F5.1°C 44.3°F6.8°C 95% Calm Calm -- 29.83 in1010.2 mb 0.00 in0.0 mm 0.00 in0.0 mm 0.64 in16.3 mm
01:59 PM 41.3°F5.2°C 44.2°F6.8°C 95% Calm Calm -- 29.83 in1010.2 mb 0.00 in0.0 mm 0.00 in0.0 mm 0.66 in16.8 mm
02:02 PM 41.3°F5.2°C 44.1°F6.7°C 94% Calm Calm -- 29.83 in1010.2 mb 0.00 in0.0 mm 0.00 in0.0 mm 0.66 in16.8 mm
02:05 PM 41.6°F5.3°C 44.3°F6.8°C 95% Calm Calm -- 29.83 in1010.2 mb 0.00 in0.0 mm 0.00 in0.0 mm 0.66 in16.8 mm
02:08 PM 41.6°F5.3°C 44.4°F6.9°C 95% Calm Calm -- 29.83 in1010.2 mb 0.00 in0.0 mm 0.00 in0.0 mm 0.66 in16.8 mm
02:11 PM 41.5°F5.3°C 44.8°F7.1°C 96% Calm Calm -- 29.83 in1010.2 mb 0.00 in0.0 mm 0.00 in0.0 mm 0.66 in16.8 mm
02:14 PM 41.8°F5.4°C 44.7°F7.1°C 95% Calm Calm -- 29.83 in1010.2 mb 0.00 in0.0 mm 0.00 in0.0 mm 0.66 in16.8 mm
02:17 PM 41.7°F5.4°C 44.7°F7.1°C 95% Calm Calm -- 29.83 in1010.2 mb 0.00 in0.0 mm 0.00 in0.0 mm 0.66 in16.8 mm
02:20 PM 41.7°F5.4°C 44.4°F6.9°C 94% Calm Calm -- 29.83 in1010.2 mb 0.00 in0.0 mm 0.00 in0.0 mm 0.66 in16.8 mm
02:23 PM 41.6°F5.3°C 44.8°F7.1°C 95% Calm Calm -- 29.82 in1009.8 mb 0.00 in0.0 mm 0.00 in0.0 mm 0.66 in16.8 mm
02:26 PM 41.7°F5.4°C 44.9°F7.2°C 95% Calm Calm -- 29.83 in1010.2 mb 0.00 in0.0 mm 0.00 in0.0 mm 0.68 in17.3 mm
02:29 PM 41.7°F5.4°C 45.1°F7.3°C 95% Calm Calm -- 29.83 in1010.2 mb 0.00 in0.0 mm 0.00 in0.0 mm 0.68 in17.3 mm
02:32 PM 41.8°F5.4°C 44.7°F7.1°C 94% 0.4 mph WSW0.6 kmh WSW 0.4 mph0.6 kmh 29.83 in1010.2 mb 0.00 in0.0 mm 0.00 in0.0 mm 0.68 in17.3 mm
02:35 PM 41.8°F5.4°C 45.0°F7.2°C 95% Calm Calm -- 29.83 in1010.2 mb 0.00 in0.0 mm 0.00 in0.0 mm 0.68 in17.3 mm
02:38 PM 41.9°F5.5°C 45.1°F7.3°C 95% 0.8 mph W1.3 kmh W 0.8 mph1.3 kmh 29.83 in1010.2 mb 0.00 in0.0 mm 0.00 in0.0 mm 0.68 in17.3 mm
02:41 PM 42.1°F5.6°C 45.3°F7.4°C 95% 1.2 mph W1.9 kmh W 1.2 mph1.9 kmh 29.83 in1010.2 mb 0.00 in0.0 mm 0.00 in0.0 mm 0.68 in17.3 mm
02:44 PM 42.1°F5.6°C 45.2°F7.3°C 95% 1.6 mph NW2.6 kmh NW 1.6 mph2.6 kmh 29.83 in1010.2 mb 0.00 in0.0 mm 0.00 in0.0 mm 0.68 in17.3 mm
02:47 PM 42.4°F5.8°C 45.3°F7.4°C 95% 0.4 mph NW0.6 kmh NW 0.4 mph0.6 kmh 29.83 in1010.2 mb 0.00 in0.0 mm 0.00 in0.0 mm 0.68 in17.3 mm
02:50 PM 42.4°F5.8°C 45.6°F7.6°C 95% 0.4 mph WNW0.6 kmh WNW 0.4 mph0.6 kmh 29.83 in1010.2 mb 0.00 in0.0 mm 0.00 in0.0 mm 0.68 in17.3 mm
02:53 PM 42.2°F5.7°C 45.4°F7.4°C 95% Calm Calm -- 29.83 in1010.2 mb 0.00 in0.0 mm 0.00 in0.0 mm 0.68 in17.3 mm
02:56 PM 42.2°F5.7°C 45.3°F7.4°C 95% Calm Calm -- 29.83 in1010.2 mb 0.00 in0.0 mm 0.00 in0.0 mm 0.68 in17.3 mm
02:59 PM 42.5°F5.8°C 45.5°F7.5°C 95% Calm Calm -- 29.83 in1010.2 mb 0.00 in0.0 mm 0.00 in0.0 mm 0.68 in17.3 mm
03:02 PM 42.5°F5.8°C 45.6°F7.6°C 96% 0.4 mph NW0.6 kmh NW 0.4 mph0.6 kmh 29.83 in1010.2 mb 0.00 in0.0 mm 0.00 in0.0 mm 0.68 in17.3 mm
03:05 PM 42.4°F5.8°C 45.0°F7.2°C 94% 0.8 mph NW1.3 kmh NW 0.8 mph1.3 kmh 29.83 in1010.2 mb 0.00 in0.0 mm 0.00 in0.0 mm 0.68 in17.3 mm
03:08 PM 42.5°F5.8°C 45.7°F7.6°C 95% 0.4 mph WNW0.6 kmh WNW 0.4 mph0.6 kmh 29.83 in1010.2 mb 0.00 in0.0 mm 0.00 in0.0 mm 0.68 in17.3 mm
03:11 PM 42.6°F5.9°C 45.7°F7.6°C 96% Calm Calm -- 29.82 in1009.8 mb 0.00 in0.0 mm 0.00 in0.0 mm 0.68 in17.3 mm
03:14 PM 42.6°F5.9°C 45.6°F7.6°C 95% 1.2 mph W1.9 kmh W 1.2 mph1.9 kmh 29.82 in1009.8 mb 0.00 in0.0 mm 0.00 in0.0 mm 0.68 in17.3 mm
03:17 PM 42.6°F5.9°C 45.7°F7.6°C 95% Calm Calm -- 29.82 in1009.8 mb 0.00 in0.0 mm 0.00 in0.0 mm 0.70 in17.8 mm
03:20 PM 42.6°F5.9°C 45.8°F7.7°C 95% 0.8 mph W1.3 kmh W 0.8 mph1.3 kmh 29.82 in1009.8 mb 0.00 in0.0 mm 0.00 in0.0 mm 0.70 in17.8 mm
03:23 PM 42.6°F5.9°C 45.9°F7.7°C 95% 0.4 mph NNW0.6 kmh NNW 0.4 mph0.6 kmh 29.81 in1009.5 mb 0.00 in0.0 mm 0.00 in0.0 mm 0.70 in17.8 mm
03:26 PM 42.6°F5.9°C 45.9°F7.7°C 95% Calm Calm -- 29.82 in1009.8 mb 0.00 in0.0 mm 0.00 in0.0 mm 0.70 in17.8 mm
03:29 PM 42.6°F5.9°C 45.6°F7.6°C 95% Calm Calm -- 29.82 in1009.8 mb 0.00 in0.0 mm 0.00 in0.0 mm 0.70 in17.8 mm
03:32 PM 42.6°F5.9°C 46.1°F7.8°C 96% 1.2 mph W1.9 kmh W 1.2 mph1.9 kmh 29.82 in1009.8 mb 0.00 in0.0 mm 0.00 in0.0 mm 0.70 in17.8 mm
03:35 PM 42.7°F5.9°C 45.6°F7.6°C 94% 1.6 mph W2.6 kmh W 1.6 mph2.6 kmh 29.82 in1009.8 mb 0.00 in0.0 mm 0.00 in0.0 mm 0.70 in17.8 mm
03:38 PM 42.7°F5.9°C 46.2°F7.9°C 95% 0.8 mph W1.3 kmh W 0.8 mph1.3 kmh 29.82 in1009.8 mb 0.00 in0.0 mm 0.00 in0.0 mm 0.70 in17.8 mm
03:41 PM 42.7°F5.9°C 46.2°F7.9°C 95% 2.4 mph W3.9 kmh W 2.4 mph3.9 kmh 29.82 in1009.8 mb 0.00 in0.0 mm 0.00 in0.0 mm 0.70 in17.8 mm
03:44 PM 42.7°F5.9°C 46.3°F7.9°C 95% 0.4 mph W0.6 kmh W 0.4 mph0.6 kmh 29.82 in1009.8 mb 0.00 in0.0 mm 0.00 in0.0 mm 0.70 in17.8 mm
03:47 PM 42.6°F5.9°C 46.2°F7.9°C 95% 0.8 mph WNW1.3 kmh WNW 0.8 mph1.3 kmh 29.82 in1009.8 mb 0.00 in0.0 mm 0.00 in0.0 mm 0.70 in17.8 mm
03:50 PM 42.7°F5.9°C 46.1°F7.8°C 95% Calm Calm -- 29.83 in1010.2 mb 0.00 in0.0 mm 0.00 in0.0 mm 0.70 in17.8 mm
03:53 PM 42.6°F5.9°C 46.0°F7.8°C 94% Calm Calm -- 29.83 in1010.2 mb 0.00 in0.0 mm 0.00 in0.0 mm 0.70 in17.8 mm
03:56 PM 42.7°F5.9°C 46.3°F7.9°C 95% 0.4 mph NNW0.6 kmh NNW 0.4 mph0.6 kmh 29.83 in1010.2 mb 0.00 in0.0 mm 0.00 in0.0 mm 0.70 in17.8 mm
03:59 PM 42.5°F5.8°C 46.4°F8.0°C 95% Calm Calm -- 29.83 in1010.2 mb 0.00 in0.0 mm 0.00 in0.0 mm 0.70 in17.8 mm
04:02 PM 42.6°F5.9°C 46.2°F7.9°C 94% 2.4 mph W3.9 kmh W 2.4 mph3.9 kmh 29.83 in1010.2 mb 0.00 in0.0 mm 0.00 in0.0 mm 0.70 in17.8 mm
04:05 PM 42.7°F5.9°C 46.4°F8.0°C 95% 2.4 mph W3.9 kmh W 2.4 mph3.9 kmh 29.83 in1010.2 mb 0.00 in0.0 mm 0.00 in0.0 mm 0.70 in17.8 mm
04:08 PM 42.6°F5.9°C 46.3°F7.9°C 95% 1.2 mph W1.9 kmh W 1.2 mph1.9 kmh 29.82 in1009.8 mb 0.00 in0.0 mm 0.00 in0.0 mm 0.70 in17.8 mm
04:11 PM 42.7°F5.9°C 46.5°F8.1°C 95% 1.2 mph W1.9 kmh W 1.2 mph1.9 kmh 29.82 in1009.8 mb 0.00 in0.0 mm 0.00 in0.0 mm 0.70 in17.8 mm
04:14 PM 42.7°F5.9°C 46.2°F7.9°C 94% 2.8 mph W4.5 kmh W 2.8 mph4.5 kmh 29.82 in1009.8 mb 0.00 in0.0 mm 0.00 in0.0 mm 0.70 in17.8 mm
04:17 PM 42.7°F5.9°C 46.6°F8.1°C 95% 2.0 mph SW3.2 kmh SW 2.0 mph3.2 kmh 29.82 in1009.8 mb 0.00 in0.0 mm 0.00 in0.0 mm 0.70 in17.8 mm
04:20 PM 42.6°F5.9°C 46.7°F8.2°C 95% 3.2 mph WSW5.1 kmh WSW 3.2 mph5.1 kmh 29.82 in1009.8 mb 0.00 in0.0 mm 0.00 in0.0 mm 0.70 in17.8 mm
04:23 PM 42.6°F5.9°C 46.7°F8.2°C 95% 2.0 mph NNW3.2 kmh NNW 2.0 mph3.2 kmh 29.83 in1010.2 mb 0.00 in0.0 mm 0.00 in0.0 mm 0.70 in17.8 mm
04:26 PM 42.8°F6.0°C 46.8°F8.2°C 95% 2.8 mph W4.5 kmh W 2.8 mph4.5 kmh 29.82 in1009.8 mb 0.00 in0.0 mm 0.00 in0.0 mm 0.70 in17.8 mm
04:29 PM 42.7°F5.9°C 46.5°F8.1°C 95% Calm Calm -- 29.82 in1009.8 mb 0.00 in0.0 mm 0.00 in0.0 mm 0.70 in17.8 mm
04:32 PM 42.6°F5.9°C 46.8°F8.2°C 95% 2.0 mph W3.2 kmh W 2.0 mph3.2 kmh 29.82 in1009.8 mb 0.00 in0.0 mm 0.00 in0.0 mm 0.70 in17.8 mm
04:35 PM 42.5°F5.8°C 46.2°F7.9°C 93% 3.2 mph WSW5.1 kmh WSW 3.2 mph5.1 kmh 29.82 in1009.8 mb 0.00 in0.0 mm 0.00 in0.0 mm 0.70 in17.8 mm
04:38 PM 42.7°F5.9°C 46.8°F8.2°C 95% 1.2 mph W1.9 kmh W 1.2 mph1.9 kmh 29.83 in1010.2 mb 0.00 in0.0 mm 0.00 in0.0 mm 0.70 in17.8 mm
04:41 PM 42.7°F5.9°C 46.6°F8.1°C 95% Calm Calm -- 29.83 in1010.2 mb 0.00 in0.0 mm 0.00 in0.0 mm 0.70 in17.8 mm
04:44 PM 42.7°F5.9°C 46.8°F8.2°C 95% 1.2 mph WNW1.9 kmh WNW 1.2 mph1.9 kmh 29.82 in1009.8 mb 0.00 in0.0 mm 0.00 in0.0 mm 0.70 in17.8 mm
04:47 PM 42.7°F5.9°C 46.6°F8.1°C 95% 0.8 mph W1.3 kmh W 0.8 mph1.3 kmh 29.83 in1010.2 mb 0.00 in0.0 mm 0.00 in0.0 mm 0.70 in17.8 mm
04:50 PM 42.8°F6.0°C 46.8°F8.2°C 95% Calm Calm -- 29.83 in1010.2 mb 0.00 in0.0 mm 0.00 in0.0 mm 0.70 in17.8 mm
04:53 PM 42.8°F6.0°C 46.9°F8.3°C 95% 3.6 mph W5.8 kmh W 3.7 mph6.0 kmh 29.83 in1010.2 mb 0.00 in0.0 mm 0.00 in0.0 mm 0.70 in17.8 mm
04:56 PM 42.8°F6.0°C 46.8°F8.2°C 95% 2.8 mph W4.5 kmh W 2.8 mph4.5 kmh 29.83 in1010.2 mb 0.00 in0.0 mm 0.00 in0.0 mm 0.70 in17.8 mm
04:59 PM 42.8°F6.0°C 46.9°F8.3°C 95% 0.4 mph W0.6 kmh W 0.4 mph0.6 kmh 29.83 in1010.2 mb 0.00 in0.0 mm 0.00 in0.0 mm 0.70 in17.8 mm
05:02 PM 42.8°F6.0°C 47.0°F8.3°C 95% 0.8 mph WSW1.3 kmh WSW 0.8 mph1.3 kmh 29.83 in1010.2 mb 0.00 in0.0 mm 0.00 in0.0 mm 0.70 in17.8 mm
05:05 PM 42.8°F6.0°C 46.5°F8.1°C 93% 1.2 mph W1.9 kmh W 1.2 mph1.9 kmh 29.83 in1010.2 mb 0.00 in0.0 mm 0.00 in0.0 mm 0.70 in17.8 mm
05:08 PM 42.8°F6.0°C 46.9°F8.3°C 95% 2.4 mph W3.9 kmh W 2.4 mph3.9 kmh 29.83 in1010.2 mb 0.00 in0.0 mm 0.00 in0.0 mm 0.70 in17.8 mm
05:11 PM 42.8°F6.0°C 46.9°F8.3°C 95% 0.8 mph W1.3 kmh W 0.8 mph1.3 kmh 29.83 in1010.2 mb 0.00 in0.0 mm 0.00 in0.0 mm 0.70 in17.8 mm
05:14 PM 42.9°F6.1°C 46.9°F8.3°C 95% 1.6 mph W2.6 kmh W 1.6 mph2.6 kmh 29.82 in1009.8 mb 0.00 in0.0 mm 0.00 in0.0 mm 0.70 in17.8 mm
05:17 PM 42.9°F6.1°C 47.0°F8.3°C 95% 2.8 mph WSW4.5 kmh WSW 2.9 mph4.7 kmh 29.83 in1010.2 mb 0.00 in0.0 mm 0.00 in0.0 mm 0.70 in17.8 mm
05:20 PM 42.9°F6.1°C 47.0°F8.3°C 95% 1.2 mph NNW1.9 kmh NNW 1.2 mph1.9 kmh 29.83 in1010.2 mb 0.00 in0.0 mm 0.00 in0.0 mm 0.70 in17.8 mm
05:23 PM 42.9°F6.1°C 47.2°F8.4°C 95% 2.4 mph WNW3.9 kmh WNW 2.4 mph3.9 kmh 29.83 in1010.2 mb 0.00 in0.0 mm 0.00 in0.0 mm 0.70 in17.8 mm
05:26 PM 42.9°F6.1°C 47.1°F8.4°C 95% 2.0 mph WSW3.2 kmh WSW 2.0 mph3.2 kmh 29.83 in1010.2 mb 0.00 in0.0 mm 0.00 in0.0 mm 0.70 in17.8 mm
05:29 PM 42.8°F6.0°C 47.1°F8.4°C 94% 1.2 mph NW1.9 kmh NW 1.2 mph1.9 kmh 29.83 in1010.2 mb 0.00 in0.0 mm 0.00 in0.0 mm 0.70 in17.8 mm
05:32 PM 42.9°F6.1°C 47.1°F8.4°C 94% 1.2 mph WSW1.9 kmh WSW 1.2 mph1.9 kmh 29.83 in1010.2 mb 0.00 in0.0 mm 0.00 in0.0 mm 0.70 in17.8 mm
05:35 PM 42.9°F6.1°C 47.2°F8.4°C 95% 2.0 mph W3.2 kmh W 2.0 mph3.2 kmh 29.83 in1010.2 mb 0.00 in0.0 mm 0.00 in0.0 mm 0.70 in17.8 mm
05:38 PM 42.8°F6.0°C 47.4°F8.6°C 95% 0.8 mph W1.3 kmh W 0.8 mph1.3 kmh 29.82 in1009.8 mb 0.00 in0.0 mm 0.00 in0.0 mm 0.70 in17.8 mm
05:41 PM 42.8°F6.0°C 47.2°F8.4°C 95% Calm Calm -- 29.82 in1009.8 mb 0.00 in0.0 mm 0.00 in0.0 mm 0.70 in17.8 mm
05:44 PM 42.8°F6.0°C 47.1°F8.4°C 94% Calm Calm -- 29.82 in1009.8 mb 0.00 in0.0 mm 0.00 in0.0 mm 0.70 in17.8 mm
05:47 PM 42.8°F6.0°C 46.9°F8.3°C 93% 0.4 mph NNW0.6 kmh NNW 0.4 mph0.6 kmh 29.82 in1009.8 mb 0.00 in0.0 mm 0.00 in0.0 mm 0.72 in18.3 mm
05:50 PM 42.8°F6.0°C 47.0°F8.3°C 94% 1.6 mph WSW2.6 kmh WSW 1.6 mph2.6 kmh 29.83 in1010.2 mb 0.00 in0.0 mm 0.00 in0.0 mm 0.72 in18.3 mm
05:53 PM 42.8°F6.0°C 47.2°F8.4°C 94% Calm Calm -- 29.82 in1009.8 mb 0.00 in0.0 mm 0.00 in0.0 mm 0.72 in18.3 mm
05:56 PM 42.9°F6.1°C 47.3°F8.5°C 94% Calm Calm -- 29.82 in1009.8 mb 0.00 in0.0 mm 0.00 in0.0 mm 0.72 in18.3 mm
05:59 PM 42.9°F6.1°C 47.4°F8.6°C 94% Calm Calm -- 29.82 in1009.8 mb 0.00 in0.0 mm 0.00 in0.0 mm 0.72 in18.3 mm
06:02 PM 42.9°F6.1°C 47.1°F8.4°C 95% 0.4 mph W0.6 kmh W 0.4 mph0.6 kmh 29.83 in1010.2 mb 0.00 in0.0 mm 0.00 in0.0 mm 0.72 in18.3 mm
06:05 PM 42.9°F6.1°C 47.5°F8.6°C 95% Calm Calm -- 29.83 in1010.2 mb 0.00 in0.0 mm 0.00 in0.0 mm 0.72 in18.3 mm
06:08 PM 42.9°F6.1°C 47.3°F8.5°C 95% 0.8 mph WNW1.3 kmh WNW 0.8 mph1.3 kmh 29.83 in1010.2 mb 0.00 in0.0 mm 0.00 in0.0 mm 0.72 in18.3 mm
06:11 PM 42.8°F6.0°C 47.4°F8.6°C 95% 0.4 mph W0.6 kmh W 0.4 mph0.6 kmh 29.83 in1010.2 mb 0.00 in0.0 mm 0.00 in0.0 mm 0.72 in18.3 mm
06:14 PM 42.9°F6.1°C 47.3°F8.5°C 95% 0.8 mph WSW1.3 kmh WSW 0.8 mph1.3 kmh 29.83 in1010.2 mb 0.00 in0.0 mm 0.00 in0.0 mm 0.72 in18.3 mm
06:17 PM 42.8°F6.0°C 47.3°F8.5°C 94% 0.4 mph NNW0.6 kmh NNW 0.4 mph0.6 kmh 29.83 in1010.2 mb 0.00 in0.0 mm 0.00 in0.0 mm 0.72 in18.3 mm
06:20 PM 42.8°F6.0°C 47.5°F8.6°C 95% Calm Calm -- 29.83 in1010.2 mb 0.00 in0.0 mm 0.00 in0.0 mm 0.72 in18.3 mm
06:23 PM 42.8°F6.0°C 47.4°F8.6°C 94% 2.4 mph NNW3.9 kmh NNW 2.4 mph3.9 kmh 29.83 in1010.2 mb 0.00 in0.0 mm 0.00 in0.0 mm 0.72 in18.3 mm
06:26 PM 42.8°F6.0°C 47.3°F8.5°C 94% Calm Calm -- 29.83 in1010.2 mb 0.00 in0.0 mm 0.00 in0.0 mm 0.72 in18.3 mm
06:29 PM 42.9°F6.1°C 47.3°F8.5°C 95% 3.6 mph WNW5.8 kmh WNW 3.6 mph5.8 kmh 29.83 in1010.2 mb 0.00 in0.0 mm 0.00 in0.0 mm 0.72 in18.3 mm
06:32 PM 42.9°F6.1°C 47.3°F8.5°C 94% Calm Calm -- 29.83 in1010.2 mb 0.00 in0.0 mm 0.00 in0.0 mm 0.72 in18.3 mm
06:35 PM 42.9°F6.1°C 47.3°F8.5°C 95% 3.2 mph NW5.1 kmh NW 3.2 mph5.1 kmh 29.83 in1010.2 mb 0.00 in0.0 mm 0.00 in0.0 mm 0.72 in18.3 mm
06:38 PM 43.0°F6.1°C 47.1°F8.4°C 93% 5.2 mph WNW8.4 kmh WNW 5.2 mph8.4 kmh 29.83 in1010.2 mb 0.00 in0.0 mm 0.00 in0.0 mm 0.72 in18.3 mm
06:41 PM 43.0°F6.1°C 47.3°F8.5°C 94% 2.0 mph W3.2 kmh W 2.0 mph3.2 kmh 29.83 in1010.2 mb 0.00 in0.0 mm 0.00 in0.0 mm 0.72 in18.3 mm
06:44 PM 43.0°F6.1°C 47.4°F8.6°C 95% 2.0 mph W3.2 kmh W 2.0 mph3.2 kmh 29.83 in1010.2 mb 0.00 in0.0 mm 0.00 in0.0 mm 0.72 in18.3 mm
06:47 PM 43.0°F6.1°C 47.5°F8.6°C 95% 2.4 mph W3.9 kmh W 2.4 mph3.9 kmh 29.83 in1010.2 mb 0.00 in0.0 mm 0.00 in0.0 mm 0.72 in18.3 mm
06:50 PM 43.0°F6.1°C 47.4°F8.6°C 95% 1.2 mph W1.9 kmh W 1.2 mph1.9 kmh 29.83 in1010.2 mb 0.00 in0.0 mm 0.00 in0.0 mm 0.72 in18.3 mm
06:53 PM 42.9°F6.1°C 47.5°F8.6°C 95% 1.2 mph WNW1.9 kmh WNW 1.2 mph1.9 kmh 29.83 in1010.2 mb 0.00 in0.0 mm 0.00 in0.0 mm 0.72 in18.3 mm
06:56 PM 43.0°F6.1°C 47.4°F8.6°C 94% 2.8 mph W4.5 kmh W 2.9 mph4.7 kmh 29.83 in1010.2 mb 0.00 in0.0 mm 0.00 in0.0 mm 0.72 in18.3 mm
06:59 PM 42.9°F6.1°C 47.5°F8.6°C 94% 0.8 mph NW1.3 kmh NW 0.8 mph1.3 kmh 29.83 in1010.2 mb 0.00 in0.0 mm 0.00 in0.0 mm 0.72 in18.3 mm
07:02 PM 43.0°F6.1°C 46.8°F8.2°C 93% 1.6 mph W2.6 kmh W 1.6 mph2.6 kmh 29.83 in1010.2 mb 0.00 in0.0 mm 0.00 in0.0 mm 0.72 in18.3 mm
07:05 PM 43.0°F6.1°C 47.2°F8.4°C 93% 1.2 mph W1.9 kmh W 1.2 mph1.9 kmh 29.83 in1010.2 mb 0.00 in0.0 mm 0.00 in0.0 mm 0.72 in18.3 mm
07:08 PM 43.0°F6.1°C 47.5°F8.6°C 95% 2.0 mph W3.2 kmh W 2.0 mph3.2 kmh 29.83 in1010.2 mb 0.00 in0.0 mm 0.00 in0.0 mm 0.72 in18.3 mm
07:11 PM 43.0°F6.1°C 47.7°F8.7°C 95% 1.6 mph W2.6 kmh W 1.6 mph2.6 kmh 29.84 in1010.5 mb 0.00 in0.0 mm 0.00 in0.0 mm 0.74 in18.8 mm
07:14 PM 43.0°F6.1°C 47.6°F8.7°C 94% 1.2 mph W1.9 kmh W 1.2 mph1.9 kmh 29.83 in1010.2 mb 0.00 in0.0 mm 0.00 in0.0 mm 0.74 in18.8 mm
07:17 PM 43.0°F6.1°C 47.4°F8.6°C 94% 1.2 mph W1.9 kmh W 1.2 mph1.9 kmh 29.83 in1010.2 mb 0.00 in0.0 mm 0.00 in0.0 mm 0.74 in18.8 mm
07:20 PM 43.0°F6.1°C 47.4°F8.6°C 94% 3.2 mph WSW5.1 kmh WSW 3.2 mph5.1 kmh 29.83 in1010.2 mb 0.00 in0.0 mm 0.00 in0.0 mm 0.74 in18.8 mm
07:23 PM 43.0°F6.1°C 47.5°F8.6°C 95% 1.6 mph W2.6 kmh W 1.6 mph2.6 kmh 29.83 in1010.2 mb 0.00 in0.0 mm 0.00 in0.0 mm 0.74 in18.8 mm
07:26 PM 43.0°F6.1°C 47.5°F8.6°C 95% 1.6 mph NNW2.6 kmh NNW 1.6 mph2.6 kmh 29.83 in1010.2 mb 0.00 in0.0 mm 0.00 in0.0 mm 0.74 in18.8 mm
07:29 PM 43.0°F6.1°C 47.6°F8.7°C 94% 0.8 mph WNW1.3 kmh WNW 0.8 mph1.3 kmh 29.83 in1010.2 mb 0.00 in0.0 mm 0.00 in0.0 mm 0.74 in18.8 mm
07:32 PM 43.0°F6.1°C 47.5°F8.6°C 94% 1.6 mph WNW2.6 kmh WNW 1.6 mph2.6 kmh 29.83 in1010.2 mb 0.00 in0.0 mm 0.00 in0.0 mm 0.74 in18.8 mm
07:35 PM 42.9°F6.1°C 47.5°F8.6°C 94% 4.4 mph NW7.1 kmh NW 4.5 mph7.2 kmh 29.83 in1010.2 mb 0.00 in0.0 mm 0.00 in0.0 mm 0.74 in18.8 mm
07:38 PM 43.0°F6.1°C 47.7°F8.7°C 95% 0.8 mph NNW1.3 kmh NNW 0.8 mph1.3 kmh 29.83 in1010.2 mb 0.00 in0.0 mm 0.00 in0.0 mm 0.74 in18.8 mm
07:41 PM 43.0°F6.1°C 47.6°F8.7°C 94% 1.6 mph NW2.6 kmh NW 1.6 mph2.6 kmh 29.83 in1010.2 mb 0.00 in0.0 mm 0.00 in0.0 mm 0.74 in18.8 mm
07:44 PM 43.0°F6.1°C 47.6°F8.7°C 94% 0.8 mph WSW1.3 kmh WSW 0.8 mph1.3 kmh 29.83 in1010.2 mb 0.00 in0.0 mm 0.00 in0.0 mm 0.74 in18.8 mm
07:47 PM 43.0°F6.1°C 47.6°F8.7°C 94% 0.4 mph WNW0.6 kmh WNW 0.4 mph0.6 kmh 29.83 in1010.2 mb 0.00 in0.0 mm 0.00 in0.0 mm 0.74 in18.8 mm
07:50 PM 43.0°F6.1°C 47.6°F8.7°C 94% 0.8 mph W1.3 kmh W 0.8 mph1.3 kmh 29.83 in1010.2 mb 0.00 in0.0 mm 0.00 in0.0 mm 0.74 in18.8 mm
07:53 PM 42.9°F6.1°C 47.5°F8.6°C 94% 2.8 mph NNW4.5 kmh NNW 2.8 mph4.5 kmh 29.83 in1010.2 mb 0.00 in0.0 mm 0.00 in0.0 mm 0.74 in18.8 mm
07:56 PM 42.9°F6.1°C 47.6°F8.7°C 94% 1.6 mph WSW2.6 kmh WSW 1.6 mph2.6 kmh 29.83 in1010.2 mb 0.00 in0.0 mm 0.00 in0.0 mm 0.74 in18.8 mm
07:59 PM 42.9°F6.1°C 47.3°F8.5°C 93% 1.6 mph WNW2.6 kmh WNW 1.6 mph2.6 kmh 29.83 in1010.2 mb 0.00 in0.0 mm 0.00 in0.0 mm 0.74 in18.8 mm
08:02 PM 42.9°F6.1°C 47.6°F8.7°C 94% 0.8 mph WSW1.3 kmh WSW 0.8 mph1.3 kmh 29.83 in1010.2 mb 0.00 in0.0 mm 0.00 in0.0 mm 0.74 in18.8 mm
08:05 PM 42.9°F6.1°C 47.4°F8.6°C 94% 2.4 mph W3.9 kmh W 2.4 mph3.9 kmh 29.82 in1009.8 mb 0.00 in0.0 mm 0.00 in0.0 mm 0.74 in18.8 mm
08:08 PM 43.0°F6.1°C 47.3°F8.5°C 94% 2.8 mph W4.5 kmh W 2.8 mph4.5 kmh 29.83 in1010.2 mb 0.00 in0.0 mm 0.00 in0.0 mm 0.74 in18.8 mm
08:11 PM 43.0°F6.1°C 47.8°F8.8°C 95% 2.8 mph W4.5 kmh W 2.8 mph4.5 kmh 29.83 in1010.2 mb 0.00 in0.0 mm 0.00 in0.0 mm 0.74 in18.8 mm
08:14 PM 42.9°F6.1°C 47.5°F8.6°C 94% 2.8 mph W4.5 kmh W 2.8 mph4.5 kmh 29.83 in1010.2 mb 0.00 in0.0 mm 0.00 in0.0 mm 0.74 in18.8 mm
08:17 PM 42.9°F6.1°C 47.6°F8.7°C 94% 2.4 mph NW3.9 kmh NW 2.4 mph3.9 kmh 29.83 in1010.2 mb 0.00 in0.0 mm 0.00 in0.0 mm 0.74 in18.8 mm
08:20 PM 42.9°F6.1°C 47.5°F8.6°C 94% 2.8 mph NNW4.5 kmh NNW 2.8 mph4.5 kmh 29.83 in1010.2 mb 0.00 in0.0 mm 0.00 in0.0 mm 0.74 in18.8 mm
08:23 PM 43.0°F6.1°C 47.7°F8.7°C 94% Calm Calm -- 29.83 in1010.2 mb 0.00 in0.0 mm 0.00 in0.0 mm 0.74 in18.8 mm
08:26 PM 42.9°F6.1°C 47.8°F8.8°C 94% 2.0 mph NW3.2 kmh NW 2.0 mph3.2 kmh 29.84 in1010.5 mb 0.00 in0.0 mm 0.00 in0.0 mm 0.74 in18.8 mm
08:29 PM 42.9°F6.1°C 47.7°F8.7°C 94% 1.6 mph W2.6 kmh W 1.6 mph2.6 kmh 29.84 in1010.5 mb 0.00 in0.0 mm 0.00 in0.0 mm 0.74 in18.8 mm
08:32 PM 43.0°F6.1°C 47.5°F8.6°C 94% 2.8 mph W4.5 kmh W 2.9 mph4.7 kmh 29.83 in1010.2 mb 0.00 in0.0 mm 0.00 in0.0 mm 0.74 in18.8 mm
08:35 PM 42.9°F6.1°C 47.6°F8.7°C 94% 0.8 mph WNW1.3 kmh WNW 0.8 mph1.3 kmh 29.84 in1010.5 mb 0.00 in0.0 mm 0.00 in0.0 mm 0.74 in18.8 mm
08:38 PM 43.0°F6.1°C 47.5°F8.6°C 94% 0.4 mph W0.6 kmh W 0.4 mph0.6 kmh 29.83 in1010.2 mb 0.00 in0.0 mm 0.00 in0.0 mm 0.74 in18.8 mm
08:41 PM 43.0°F6.1°C 47.7°F8.7°C 94% 3.6 mph NW5.8 kmh NW 3.6 mph5.8 kmh 29.83 in1010.2 mb 0.00 in0.0 mm 0.00 in0.0 mm 0.74 in18.8 mm
08:44 PM 42.9°F6.1°C 47.8°F8.8°C 94% 1.2 mph W1.9 kmh W 1.2 mph1.9 kmh 29.84 in1010.5 mb 0.00 in0.0 mm 0.00 in0.0 mm 0.74 in18.8 mm
08:47 PM 42.9°F6.1°C 47.7°F8.7°C 94% 0.8 mph W1.3 kmh W 0.8 mph1.3 kmh 29.84 in1010.5 mb 0.00 in0.0 mm 0.00 in0.0 mm 0.74 in18.8 mm
08:50 PM 42.9°F6.1°C 47.0°F8.3°C 92% 2.4 mph NW3.9 kmh NW 2.4 mph3.9 kmh 29.84 in1010.5 mb 0.00 in0.0 mm 0.00 in0.0 mm 0.74 in18.8 mm
08:53 PM 42.9°F6.1°C 47.5°F8.6°C 94% 2.4 mph W3.9 kmh W 2.4 mph3.9 kmh 29.83 in1010.2 mb 0.00 in0.0 mm 0.00 in0.0 mm 0.74 in18.8 mm
08:56 PM 43.0°F6.1°C 47.5°F8.6°C 94% 2.6 mph NNW4.2 kmh NNW 2.8 mph4.5 kmh 29.84 in1010.5 mb 0.00 in0.0 mm 0.00 in0.0 mm 0.74 in18.8 mm
08:59 PM 43.0°F6.1°C 47.6°F8.7°C 94% 4.4 mph NW7.1 kmh NW 4.4 mph7.1 kmh 29.84 in1010.5 mb 0.00 in0.0 mm 0.00 in0.0 mm 0.74 in18.8 mm
09:02 PM 43.0°F6.1°C 47.5°F8.6°C 94% 2.0 mph W3.2 kmh W 2.0 mph3.2 kmh 29.83 in1010.2 mb 0.00 in0.0 mm 0.00 in0.0 mm 0.74 in18.8 mm
09:05 PM 42.9°F6.1°C 47.6°F8.7°C 94% 3.2 mph W5.1 kmh W 3.3 mph5.3 kmh 29.83 in1010.2 mb 0.00 in0.0 mm 0.00 in0.0 mm 0.74 in18.8 mm
09:08 PM 42.9°F6.1°C 47.7°F8.7°C 94% 1.2 mph W1.9 kmh W 1.2 mph1.9 kmh 29.83 in1010.2 mb 0.00 in0.0 mm 0.00 in0.0 mm 0.74 in18.8 mm
09:11 PM 42.9°F6.1°C 47.5°F8.6°C 94% 0.4 mph W0.6 kmh W 0.4 mph0.6 kmh 29.83 in1010.2 mb 0.00 in0.0 mm 0.00 in0.0 mm 0.74 in18.8 mm
09:14 PM 42.9°F6.1°C 47.6°F8.7°C 94% 2.4 mph W3.9 kmh W 2.4 mph3.9 kmh 29.83 in1010.2 mb 0.00 in0.0 mm 0.00 in0.0 mm 0.74 in18.8 mm
09:17 PM 42.9°F6.1°C 47.6°F8.7°C 94% 2.8 mph W4.5 kmh W 2.8 mph4.5 kmh 29.82 in1009.8 mb 0.00 in0.0 mm 0.00 in0.0 mm 0.74 in18.8 mm
09:20 PM 42.9°F6.1°C 47.6°F8.7°C 94% 3.2 mph W5.1 kmh W 3.3 mph5.3 kmh 29.82 in1009.8 mb 0.00 in0.0 mm 0.00 in0.0 mm 0.74 in18.8 mm
09:23 PM 42.9°F6.1°C 47.6°F8.7°C 94% 2.0 mph W3.2 kmh W 2.0 mph3.2 kmh 29.81 in1009.5 mb 0.00 in0.0 mm 0.00 in0.0 mm 0.74 in18.8 mm
09:26 PM 42.9°F6.1°C 47.2°F8.4°C 93% 3.2 mph WSW5.1 kmh WSW 3.3 mph5.3 kmh 29.81 in1009.5 mb 0.00 in0.0 mm 0.00 in0.0 mm 0.74 in18.8 mm
09:32 PM 42.9°F6.1°C 47.6°F8.7°C 94% 2.0 mph W3.2 kmh W 2.0 mph3.2 kmh 29.81 in1009.5 mb 0.00 in0.0 mm 0.00 in0.0 mm 0.74 in18.8 mm
09:35 PM 42.9°F6.1°C 47.8°F8.8°C 94% 2.8 mph W4.5 kmh W 2.9 mph4.7 kmh 29.81 in1009.5 mb 0.00 in0.0 mm 0.00 in0.0 mm 0.74 in18.8 mm
09:38 PM 42.9°F6.1°C 47.4°F8.6°C 94% 6.9 mph W11.1 kmh W 6.9 mph11.1 kmh 29.81 in1009.5 mb 0.00 in0.0 mm 0.00 in0.0 mm 0.74 in18.8 mm
09:41 PM 42.9°F6.1°C 47.6°F8.7°C 94% 5.2 mph NW8.4 kmh NW 5.3 mph8.5 kmh 29.82 in1009.8 mb 0.00 in0.0 mm 0.00 in0.0 mm 0.74 in18.8 mm
09:44 PM 42.9°F6.1°C 47.5°F8.6°C 94% 6.1 mph W9.8 kmh W 6.1 mph9.8 kmh 29.82 in1009.8 mb 0.00 in0.0 mm 0.00 in0.0 mm 0.74 in18.8 mm
09:47 PM 42.9°F6.1°C 47.6°F8.7°C 94% 2.8 mph W4.5 kmh W 2.8 mph4.5 kmh 29.81 in1009.5 mb 0.00 in0.0 mm 0.00 in0.0 mm 0.74 in18.8 mm
09:50 PM 42.9°F6.1°C 47.4°F8.6°C 94% 5.3 mph WNW8.5 kmh WNW 5.3 mph8.5 kmh 29.81 in1009.5 mb 0.00 in0.0 mm 0.00 in0.0 mm 0.74 in18.8 mm
09:53 PM 42.9°F6.1°C 47.4°F8.6°C 94% 2.4 mph W3.9 kmh W 2.4 mph3.9 kmh 29.81 in1009.5 mb 0.00 in0.0 mm 0.00 in0.0 mm 0.74 in18.8 mm
09:56 PM 42.8°F6.0°C 47.5°F8.6°C 94% 2.4 mph W3.9 kmh W 2.4 mph3.9 kmh 29.81 in1009.5 mb 0.00 in0.0 mm 0.00 in0.0 mm 0.74 in18.8 mm
09:59 PM 42.8°F6.0°C 47.7°F8.7°C 94% 3.2 mph NNW5.1 kmh NNW 3.3 mph5.3 kmh 29.81 in1009.5 mb 0.00 in0.0 mm 0.00 in0.0 mm 0.74 in18.8 mm
10:02 PM 42.8°F6.0°C 47.3°F8.5°C 94% 4.0 mph NW6.4 kmh NW 4.1 mph6.6 kmh 29.82 in1009.8 mb 0.00 in0.0 mm 0.00 in0.0 mm 0.74 in18.8 mm
10:05 PM 42.8°F6.0°C 47.5°F8.6°C 94% 4.0 mph NW6.4 kmh NW 4.1 mph6.6 kmh 29.82 in1009.8 mb 0.00 in0.0 mm 0.00 in0.0 mm 0.74 in18.8 mm
10:08 PM 42.8°F6.0°C 47.4°F8.6°C 94% 5.3 mph SW8.5 kmh SW 5.3 mph8.5 kmh 29.82 in1009.8 mb 0.00 in0.0 mm 0.00 in0.0 mm 0.74 in18.8 mm
10:11 PM 42.8°F6.0°C 47.3°F8.5°C 94% 4.4 mph WNW7.1 kmh WNW 4.5 mph7.2 kmh 29.82 in1009.8 mb 0.00 in0.0 mm 0.00 in0.0 mm 0.74 in18.8 mm
10:14 PM 42.8°F6.0°C 47.2°F8.4°C 94% 2.8 mph W4.5 kmh W 2.8 mph4.5 kmh 29.83 in1010.2 mb 0.00 in0.0 mm 0.00 in0.0 mm 0.74 in18.8 mm
10:17 PM 42.8°F6.0°C 47.3°F8.5°C 94% 3.6 mph NW5.8 kmh NW 3.6 mph5.8 kmh 29.83 in1010.2 mb 0.00 in0.0 mm 0.00 in0.0 mm 0.74 in18.8 mm
10:20 PM 42.8°F6.0°C 47.3°F8.5°C 94% 3.2 mph W5.1 kmh W 3.2 mph5.1 kmh 29.83 in1010.2 mb 0.00 in0.0 mm 0.00 in0.0 mm 0.74 in18.8 mm
10:23 PM 42.8°F6.0°C 47.4°F8.6°C 94% 2.8 mph NNW4.5 kmh NNW 2.8 mph4.5 kmh 29.83 in1010.2 mb 0.00 in0.0 mm 0.00 in0.0 mm 0.74 in18.8 mm
10:26 PM 42.8°F6.0°C 47.5°F8.6°C 94% 1.6 mph W2.6 kmh W 1.6 mph2.6 kmh 29.83 in1010.2 mb 0.00 in0.0 mm 0.00 in0.0 mm 0.74 in18.8 mm
10:29 PM 42.7°F5.9°C 47.4°F8.6°C 94% 4.5 mph W7.2 kmh W 4.5 mph7.2 kmh 29.82 in1009.8 mb 0.00 in0.0 mm 0.00 in0.0 mm 0.74 in18.8 mm
10:32 PM 42.7°F5.9°C 47.3°F8.5°C 93% 3.2 mph W5.1 kmh W 3.3 mph5.3 kmh 29.82 in1009.8 mb 0.00 in0.0 mm 0.00 in0.0 mm 0.74 in18.8 mm
10:35 PM 42.7°F5.9°C 47.2°F8.4°C 93% 2.4 mph NNW3.9 kmh NNW 2.4 mph3.9 kmh 29.83 in1010.2 mb 0.00 in0.0 mm 0.00 in0.0 mm 0.74 in18.8 mm
10:38 PM 42.7°F5.9°C 47.5°F8.6°C 94% 1.2 mph WNW1.9 kmh WNW 1.2 mph1.9 kmh 29.83 in1010.2 mb 0.00 in0.0 mm 0.00 in0.0 mm 0.74 in18.8 mm
10:41 PM 42.7°F5.9°C 47.1°F8.4°C 93% 2.4 mph W3.9 kmh W 2.4 mph3.9 kmh 29.82 in1009.8 mb 0.00 in0.0 mm 0.00 in0.0 mm 0.74 in18.8 mm
10:44 PM 42.6°F5.9°C 47.4°F8.6°C 94% 4.8 mph 7.7 kmh 4.8 mph7.7 kmh 29.83 in1010.2 mb 0.00 in0.0 mm 0.00 in0.0 mm 0.74 in18.8 mm
10:47 PM 42.6°F5.9°C 47.3°F8.5°C 94% 1.6 mph 2.6 kmh 1.6 mph2.6 kmh 29.83 in1010.2 mb 0.00 in0.0 mm 0.00 in0.0 mm 0.74 in18.8 mm
10:50 PM 42.6°F5.9°C 47.4°F8.6°C 94% 3.2 mph WNW5.1 kmh WNW 3.3 mph5.3 kmh 29.83 in1010.2 mb 0.00 in0.0 mm 0.00 in0.0 mm 0.74 in18.8 mm
10:53 PM 42.6°F5.9°C 47.4°F8.6°C 94% 3.5 mph NNW5.6 kmh NNW 3.5 mph5.6 kmh 29.83 in1010.2 mb 0.00 in0.0 mm 0.00 in0.0 mm 0.74 in18.8 mm
10:56 PM 42.6°F5.9°C 47.4°F8.6°C 94% 4.0 mph WNW6.4 kmh WNW 4.1 mph6.6 kmh 29.83 in1010.2 mb 0.00 in0.0 mm 0.00 in0.0 mm 0.74 in18.8 mm
10:59 PM 42.5°F5.8°C 47.5°F8.6°C 94% 0.4 mph WNW0.6 kmh WNW 0.4 mph0.6 kmh 29.83 in1010.2 mb 0.00 in0.0 mm 0.00 in0.0 mm 0.74 in18.8 mm
11:02 PM 42.5°F5.8°C 47.2°F8.4°C 93% 2.8 mph WNW4.5 kmh WNW 2.8 mph4.5 kmh 29.83 in1010.2 mb 0.00 in0.0 mm 0.00 in0.0 mm 0.74 in18.8 mm
11:05 PM 42.5°F5.8°C 47.3°F8.5°C 94% Calm Calm -- 29.83 in1010.2 mb 0.00 in0.0 mm 0.00 in0.0 mm 0.74 in18.8 mm
11:08 PM 42.5°F5.8°C 47.3°F8.5°C 94% 1.2 mph NW1.9 kmh NW 1.2 mph1.9 kmh 29.83 in1010.2 mb 0.00 in0.0 mm 0.00 in0.0 mm 0.74 in18.8 mm
11:11 PM 42.5°F5.8°C 47.3°F8.5°C 94% 0.8 mph NW1.3 kmh NW 0.8 mph1.3 kmh 29.83 in1010.2 mb 0.00 in0.0 mm 0.00 in0.0 mm 0.76 in19.3 mm
11:14 PM 42.5°F5.8°C 47.4°F8.6°C 94% 1.2 mph NW1.9 kmh NW 1.2 mph1.9 kmh 29.83 in1010.2 mb 0.00 in0.0 mm 0.00 in0.0 mm 0.76 in19.3 mm
11:17 PM 42.5°F5.8°C 47.1°F8.4°C 93% 0.8 mph WNW1.3 kmh WNW 0.8 mph1.3 kmh 29.83 in1010.2 mb 0.00 in0.0 mm 0.00 in0.0 mm 0.76 in19.3 mm
11:20 PM 42.4°F5.8°C 47.3°F8.5°C 93% 2.4 mph NNW3.9 kmh NNW 2.4 mph3.9 kmh 29.83 in1010.2 mb 0.00 in0.0 mm 0.00 in0.0 mm 0.76 in19.3 mm
11:23 PM 42.4°F5.8°C 47.2°F8.4°C 93% 3.2 mph NW5.1 kmh NW 3.3 mph5.3 kmh 29.83 in1010.2 mb 0.00 in0.0 mm 0.00 in0.0 mm 0.76 in19.3 mm
11:26 PM 42.4°F5.8°C 47.0°F8.3°C 93% 3.2 mph NW5.1 kmh NW 3.3 mph5.3 kmh 29.83 in1010.2 mb 0.00 in0.0 mm 0.00 in0.0 mm 0.76 in19.3 mm
11:29 PM 42.2°F5.7°C 47.1°F8.4°C 93% 3.9 mph NNW6.3 kmh NNW 4.0 mph6.4 kmh 29.83 in1010.2 mb 0.00 in0.0 mm 0.00 in0.0 mm 0.76 in19.3 mm
11:32 PM 42.4°F5.8°C 46.9°F8.3°C 93% 1.6 mph NNW2.6 kmh NNW 1.6 mph2.6 kmh 29.83 in1010.2 mb 0.00 in0.0 mm 0.00 in0.0 mm 0.76 in19.3 mm
11:35 PM 42.4°F5.8°C 47.1°F8.4°C 94% 2.8 mph NW4.5 kmh NW 2.8 mph4.5 kmh 29.83 in1010.2 mb 0.00 in0.0 mm 0.00 in0.0 mm 0.76 in19.3 mm
11:41 PM 42.4°F5.8°C 47.1°F8.4°C 93% 5.7 mph WSW9.2 kmh WSW 5.7 mph9.2 kmh 29.83 in1010.2 mb 0.00 in0.0 mm 0.00 in0.0 mm 0.76 in19.3 mm
11:44 PM 42.4°F5.8°C 46.9°F8.3°C 93% 3.2 mph SW5.1 kmh SW 3.3 mph5.3 kmh 29.83 in1010.2 mb 0.00 in0.0 mm 0.00 in0.0 mm 0.76 in19.3 mm
11:47 PM 42.2°F5.7°C 46.8°F8.2°C 93% 5.7 mph W9.2 kmh W 5.7 mph9.2 kmh 29.83 in1010.2 mb 0.00 in0.0 mm 0.00 in0.0 mm 0.76 in19.3 mm
11:50 PM 42.2°F5.7°C 46.9°F8.3°C 93% 3.2 mph NNW5.1 kmh NNW 3.2 mph5.1 kmh 29.83 in1010.2 mb 0.00 in0.0 mm 0.00 in0.0 mm 0.76 in19.3 mm
11:53 PM 42.2°F5.7°C 47.0°F8.3°C 93% 0.8 mph 1.3 kmh 0.8 mph1.3 kmh 29.83 in1010.2 mb 0.00 in0.0 mm 0.00 in0.0 mm 0.76 in19.3 mm
11:56 PM 42.2°F5.7°C 47.0°F8.3°C 93% 1.6 mph NW2.6 kmh NW 1.6 mph2.6 kmh 29.83 in1010.2 mb 0.00 in0.0 mm 0.00 in0.0 mm 0.76 in19.3 mm
11:59 PM 42.2°F5.7°C 46.8°F8.2°C 93% 3.2 mph W5.1 kmh W 3.2 mph5.1 kmh 29.83 in1010.2 mb 0.00 in0.0 mm 0.00 in0.0 mm 0.76 in19.3 mm